Time,TemperatureF,DewpointF,PressureIn,WindDirection,WindDirectionDegrees,WindSpeedMPH,WindSpeedGustMPH,Humidity,HourlyPrecipIn,Conditions,Clouds,dailyrainin,SoftwareType,DateUTC
2013-02-06 00:00:00,38.1,33.4,30.08,NW,306,0.0,5.0,83,0.00,,---,0.00,VWS V14.01,2013-02-06 06:00:00,
2013-02-06 00:02:00,39.3,34.0,30.08,NW,306,0.0,2.0,81,0.00,,---,0.00,VWS V14.01,2013-02-06 06:02:00,
2013-02-06 00:07:00,38.3,33.3,30.09,NW,306,0.0,2.0,82,0.00,,---,0.00,VWS V14.01,2013-02-06 06:07:00,
2013-02-06 00:12:00,38.0,33.0,30.08,NW,306,0.0,2.0,82,0.00,,---,0.00,VWS V14.01,2013-02-06 06:12:00,
2013-02-06 00:17:00,36.8,32.4,30.09,NW,306,0.0,3.0,84,0.00,,---,0.00,VWS V14.01,2013-02-06 06:17:00,
2013-02-06 00:22:00,37.3,32.9,30.09,NW,306,3.0,3.0,84,0.00,,---,0.00,VWS V14.01,2013-02-06 06:22:00,
2013-02-06 00:27:00,37.3,32.9,30.09,NW,316,0.0,5.0,84,0.00,,---,0.00,VWS V14.01,2013-02-06 06:27:00,
2013-02-06 00:28:00,37.1,32.7,30.09,NNE,23,2.0,2.0,84,0.00,,---,0.00,VWS V14.01,2013-02-06 06:28:00,
2013-02-06 00:30:00,37.2,32.8,30.09,NW,318,0.0,5.0,84,0.00,,---,0.00,VWS V14.01,2013-02-06 06:30:00,
2013-02-06 00:32:00,37.1,33.0,30.09,WNW,299,0.0,4.0,85,0.00,,---,0.00,VWS V14.01,2013-02-06 06:32:00,
2013-02-06 00:33:00,37.0,32.6,30.10,WNW,299,0.0,4.0,84,0.00,,---,0.00,VWS V14.01,2013-02-06 06:33:00,
2013-02-06 00:37:00,36.3,32.2,30.10,WNW,301,0.0,4.0,85,0.00,,---,0.00,VWS V14.01,2013-02-06 06:37:00,
2013-02-06 00:38:00,36.2,32.1,30.10,WNW,301,1.0,4.0,85,0.00,,---,0.00,VWS V14.01,2013-02-06 06:38:00,
2013-02-06 00:43:00,36.9,33.1,30.10,WNW,301,0.0,4.0,86,0.00,,---,0.00,VWS V14.01,2013-02-06 06:43:00,
2013-02-06 00:48:00,38.3,33.9,30.10,NNW,335,0.0,4.0,84,0.00,,---,0.00,VWS V14.01,2013-02-06 06:48:00,
2013-02-06 00:53:00,38.8,33.8,30.11,NNW,335,0.0,4.0,82,0.00,,---,0.00,VWS V14.01,2013-02-06 06:53:00,
2013-02-06 00:58:00,38.8,33.8,30.11,NNW,335,1.0,2.0,82,0.00,,---,0.00,VWS V14.01,2013-02-06 06:58:00,
2013-02-06 00:59:00,38.8,33.5,30.11,NNW,335,3.0,4.0,81,0.00,,---,0.00,VWS V14.01,2013-02-06 06:59:00,
2013-02-06 01:00:00,38.8,33.8,30.10,NNW,335,1.0,4.0,82,0.00,,---,0.00,VWS V14.01,2013-02-06 07:00:00,
2013-02-06 01:03:00,38.6,33.3,30.11,NW,325,2.0,7.0,81,0.00,,---,0.00,VWS V14.01,2013-02-06 07:03:00,
2013-02-06 01:04:00,38.6,33.3,30.11,NW,325,3.0,7.0,81,0.00,,---,0.00,VWS V14.01,2013-02-06 07:04:00,
2013-02-06 01:08:00,38.5,33.2,30.11,NW,325,5.0,7.0,81,0.00,,---,0.00,VWS V14.01,2013-02-06 07:08:00,
2013-02-06 01:09:00,38.5,33.2,30.11,NW,325,3.0,7.0,81,0.00,,---,0.00,VWS V14.01,2013-02-06 07:09:00,
2013-02-06 01:13:00,38.7,33.4,30.11,NNW,330,4.0,7.0,81,0.00,,---,0.00,VWS V14.01,2013-02-06 07:13:00,
2013-02-06 01:14:00,38.7,33.4,30.11,NNW,330,4.0,7.0,81,0.00,,---,0.00,VWS V14.01,2013-02-06 07:14:00,
2013-02-06 01:19:00,38.8,33.5,30.11,NW,313,7.0,9.0,81,0.00,,---,0.00,VWS V14.01,2013-02-06 07:19:00,
2013-02-06 01:20:00,38.8,33.5,30.11,NNW,330,6.0,9.0,81,0.00,,---,0.00,VWS V14.01,2013-02-06 07:20:00,
2013-02-06 01:24:00,38.9,33.6,30.11,NW,325,7.0,9.0,81,0.00,,---,0.00,VWS V14.01,2013-02-06 07:24:00,
2013-02-06 01:25:00,38.9,33.6,30.11,NNW,330,3.0,9.0,81,0.00,,---,0.00,VWS V14.01,2013-02-06 07:25:00,
2013-02-06 01:28:00,39.1,33.8,30.11,NW,321,6.0,11.0,81,0.00,,---,0.00,VWS V14.01,2013-02-06 07:28:00,
2013-02-06 01:29:00,39.2,33.9,30.11,NW,310,5.0,11.0,81,0.00,,---,0.00,VWS V14.01,2013-02-06 07:29:00,
2013-02-06 01:30:00,39.2,33.9,30.12,NNW,330,4.0,11.0,81,0.00,,---,0.00,VWS V14.01,2013-02-06 07:30:00,
2013-02-06 01:34:00,39.3,33.7,30.12,NNW,330,4.0,11.0,80,0.00,,---,0.00,VWS V14.01,2013-02-06 07:34:00,
2013-02-06 01:35:00,39.3,33.7,30.12,North,352,3.0,11.0,80,0.00,,---,0.00,VWS V14.01,2013-02-06 07:35:00,
2013-02-06 01:39:00,39.3,33.7,30.12,NNW,330,5.0,11.0,80,0.00,,---,0.00,VWS V14.01,2013-02-06 07:39:00,
2013-02-06 01:40:00,39.3,33.7,30.12,NW,325,5.0,11.0,80,0.00,,---,0.00,VWS V14.01,2013-02-06 07:40:00,
2013-02-06 01:44:00,39.4,33.8,30.12,North,6,1.0,11.0,80,0.00,,---,0.00,VWS V14.01,2013-02-06 07:44:00,
2013-02-06 01:45:00,39.5,33.8,30.12,North,6,2.0,11.0,80,0.00,,---,0.00,VWS V14.01,2013-02-06 07:45:00,
2013-02-06 01:46:00,39.4,33.8,30.12,North,6,3.0,11.0,80,0.00,,---,0.00,VWS V14.01,2013-02-06 07:46:00,
2013-02-06 01:49:00,39.5,33.8,30.13,North,6,6.0,11.0,80,0.00,,---,0.00,VWS V14.01,2013-02-06 07:49:00,
2013-02-06 01:50:00,39.5,33.8,30.13,North,360,2.0,11.0,80,0.00,,---,0.00,VWS V14.01,2013-02-06 07:50:00,
2013-02-06 01:51:00,39.5,33.8,30.13,North,360,1.0,11.0,80,0.00,,---,0.00,VWS V14.01,2013-02-06 07:51:00,
2013-02-06 01:54:00,39.5,33.5,30.13,North,360,2.0,11.0,79,0.00,,---,0.00,VWS V14.01,2013-02-06 07:54:00,
2013-02-06 01:56:00,39.5,33.8,30.13,North,360,0.0,11.0,80,0.00,,---,0.00,VWS V14.01,2013-02-06 07:56:00,
2013-02-06 01:59:00,39.2,33.6,30.13,NNW,343,5.0,5.0,80,0.00,,---,0.00,VWS V14.01,2013-02-06 07:59:00,
2013-02-06 02:00:00,39.3,33.3,30.13,North,360,1.0,11.0,79,0.00,,---,0.00,VWS V14.01,2013-02-06 08:00:00,
2013-02-06 02:01:00,39.2,33.6,30.13,NNE,17,3.0,5.0,80,0.00,,---,0.00,VWS V14.01,2013-02-06 08:01:00,
2013-02-06 02:04:00,39.0,33.4,30.13,NNW,341,1.0,5.0,80,0.00,,---,0.00,VWS V14.01,2013-02-06 08:04:00,
2013-02-06 02:06:00,38.8,33.2,30.13,NNW,335,4.0,5.0,80,0.00,,---,0.00,VWS V14.01,2013-02-06 08:06:00,
2013-02-06 02:09:00,38.3,33.0,30.13,NNW,330,2.0,5.0,81,0.00,,---,0.00,VWS V14.01,2013-02-06 08:09:00,
2013-02-06 02:11:00,38.1,32.8,30.13,NNW,330,3.0,5.0,81,0.00,,---,0.00,VWS V14.01,2013-02-06 08:11:00,
2013-02-06 02:15:00,38.0,33.0,30.13,NW,307,4.0,6.0,82,0.00,,---,0.00,VWS V14.01,2013-02-06 08:15:00,
2013-02-06 02:16:00,38.0,33.0,30.13,North,353,4.0,6.0,82,0.00,,---,0.00,VWS V14.01,2013-02-06 08:16:00,
2013-02-06 02:20:00,37.9,32.9,30.13,NW,308,5.0,7.0,82,0.00,,---,0.00,VWS V14.01,2013-02-06 08:20:00,
2013-02-06 02:21:00,37.9,32.9,30.13,NW,325,3.0,8.0,82,0.00,,---,0.00,VWS V14.01,2013-02-06 08:21:00,
2013-02-06 02:22:00,37.9,32.9,30.13,NW,325,5.0,8.0,82,0.00,,---,0.00,VWS V14.01,2013-02-06 08:22:00,
2013-02-06 02:25:00,37.7,32.7,30.13,NNW,330,3.0,8.0,82,0.00,,---,0.00,VWS V14.01,2013-02-06 08:25:00,
2013-02-06 02:26:00,37.7,32.7,30.13,NW,325,3.0,8.0,82,0.00,,---,0.00,VWS V14.01,2013-02-06 08:26:00,
2013-02-06 02:27:00,37.8,33.1,30.13,WNW,302,6.0,8.0,83,0.00,,---,0.00,VWS V14.01,2013-02-06 08:27:00,
2013-02-06 02:30:00,37.8,33.1,30.13,NNW,341,5.0,7.0,83,0.00,,---,0.00,VWS V14.01,2013-02-06 08:30:00,
2013-02-06 02:31:00,37.8,32.8,30.13,NW,320,5.0,7.0,82,0.00,,---,0.00,VWS V14.01,2013-02-06 08:31:00,
2013-02-06 02:32:00,37.8,32.8,30.13,NW,320,6.0,7.0,82,0.00,,---,0.00,VWS V14.01,2013-02-06 08:32:00,
2013-02-06 02:35:00,38.0,33.0,30.13,NW,314,3.0,7.0,82,0.00,,---,0.00,VWS V14.01,2013-02-06 08:35:00,
2013-02-06 02:36:00,38.0,33.0,30.13,NNW,330,3.0,7.0,82,0.00,,---,0.00,VWS V14.01,2013-02-06 08:36:00,
2013-02-06 02:37:00,38.0,33.0,30.13,NNW,330,3.0,7.0,82,0.00,,---,0.00,VWS V14.01,2013-02-06 08:37:00,
2013-02-06 02:40:00,38.0,33.0,30.13,NW,325,2.0,7.0,82,0.00,,---,0.00,VWS V14.01,2013-02-06 08:40:00,
2013-02-06 02:41:00,38.0,33.0,30.13,NNW,339,3.0,7.0,82,0.00,,---,0.00,VWS V14.01,2013-02-06 08:41:00,
2013-02-06 02:42:00,38.0,33.0,30.13,NNW,335,4.0,7.0,82,0.00,,---,0.00,VWS V14.01,2013-02-06 08:42:00,
2013-02-06 02:46:00,37.9,32.9,30.13,North,354,3.0,7.0,82,0.00,,---,0.00,VWS V14.01,2013-02-06 08:46:00,
2013-02-06 02:47:00,37.9,32.9,30.13,North,354,2.0,7.0,82,0.00,,---,0.00,VWS V14.01,2013-02-06 08:47:00,
2013-02-06 02:51:00,37.8,32.8,30.13,North,354,1.0,7.0,82,0.00,,---,0.00,VWS V14.01,2013-02-06 08:51:00,
2013-02-06 02:52:00,37.8,32.8,30.13,North,354,2.0,7.0,82,0.00,,---,0.00,VWS V14.01,2013-02-06 08:52:00,
2013-02-06 02:56:00,37.7,32.7,30.13,NW,325,3.0,7.0,82,0.00,,---,0.00,VWS V14.01,2013-02-06 08:56:00,
2013-02-06 02:57:00,37.6,32.6,30.13,NW,325,1.0,7.0,82,0.00,,---,0.00,VWS V14.01,2013-02-06 08:57:00,
2013-02-06 03:00:00,37.5,32.5,30.13,NW,325,1.0,7.0,82,0.00,,---,0.00,VWS V14.01,2013-02-06 09:00:00,
2013-02-06 03:01:00,37.2,32.2,30.13,NNW,330,1.0,5.0,82,0.00,,---,0.00,VWS V14.01,2013-02-06 09:01:00,
2013-02-06 03:02:00,37.1,32.1,30.13,NNW,330,0.0,5.0,82,0.00,,---,0.00,VWS V14.01,2013-02-06 09:02:00,
2013-02-06 03:04:00,37.0,32.0,30.13,NNW,330,4.0,5.0,82,0.00,,---,0.00,VWS V14.01,2013-02-06 09:04:00,
2013-02-06 03:06:00,37.0,32.3,30.13,NNW,330,2.0,5.0,83,0.00,,---,0.00,VWS V14.01,2013-02-06 09:06:00,
2013-02-06 03:07:00,37.1,32.4,30.13,NNW,330,0.0,5.0,83,0.00,,---,0.00,VWS V14.01,2013-02-06 09:07:00,
2013-02-06 03:09:00,37.0,32.0,30.13,NNW,330,3.0,5.0,82,0.00,,---,0.00,VWS V14.01,2013-02-06 09:09:00,
2013-02-06 03:11:00,37.0,32.0,30.13,NNW,330,1.0,5.0,82,0.00,,---,0.00,VWS V14.01,2013-02-06 09:11:00,
2013-02-06 03:12:00,36.9,31.9,30.13,NW,321,4.0,5.0,82,0.00,,---,0.00,VWS V14.01,2013-02-06 09:12:00,
2013-02-06 03:14:00,37.0,32.3,30.13,NW,320,3.0,5.0,83,0.00,,---,0.00,VWS V14.01,2013-02-06 09:14:00,
2013-02-06 03:16:00,37.1,32.1,30.13,NW,316,4.0,6.0,82,0.00,,---,0.00,VWS V14.01,2013-02-06 09:16:00,
2013-02-06 03:17:00,37.1,32.1,30.13,NNW,330,2.0,6.0,82,0.00,,---,0.00,VWS V14.01,2013-02-06 09:17:00,
2013-02-06 03:19:00,37.2,32.2,30.13,NW,325,3.0,6.0,82,0.00,,---,0.00,VWS V14.01,2013-02-06 09:19:00,
2013-02-06 03:21:00,37.2,32.2,30.13,NNW,330,2.0,6.0,82,0.00,,---,0.00,VWS V14.01,2013-02-06 09:21:00,
2013-02-06 03:22:00,37.2,32.2,30.13,NW,320,3.0,6.0,82,0.00,,---,0.00,VWS V14.01,2013-02-06 09:22:00,
2013-02-06 03:25:00,37.2,32.2,30.13,NW,320,0.0,6.0,82,0.00,,---,0.00,VWS V14.01,2013-02-06 09:25:00,
2013-02-06 03:26:00,37.0,31.7,30.13,NW,320,1.0,6.0,81,0.00,,---,0.00,VWS V14.01,2013-02-06 09:26:00,
2013-02-06 03:27:00,37.0,32.0,30.13,NW,320,4.0,6.0,82,0.00,,---,0.00,VWS V14.01,2013-02-06 09:27:00,
2013-02-06 03:30:00,37.0,32.0,30.13,NW,320,5.0,8.0,82,0.00,,---,0.00,VWS V14.01,2013-02-06 09:30:00,
2013-02-06 03:31:00,37.0,32.0,30.13,NNW,335,2.0,8.0,82,0.00,,---,0.00,VWS V14.01,2013-02-06 09:31:00,
2013-02-06 03:33:00,36.9,31.9,30.13,NNW,335,3.0,8.0,82,0.00,,---,0.00,VWS V14.01,2013-02-06 09:33:00,
2013-02-06 03:35:00,36.8,31.8,30.13,NNW,335,1.0,8.0,82,0.00,,---,0.00,VWS V14.01,2013-02-06 09:35:00,
2013-02-06 03:36:00,36.6,31.6,30.14,NNW,335,1.0,8.0,82,0.00,,---,0.00,VWS V14.01,2013-02-06 09:36:00,
2013-02-06 03:38:00,36.6,31.6,30.14,NNW,330,4.0,8.0,82,0.00,,---,0.00,VWS V14.01,2013-02-06 09:38:00,
2013-02-06 03:40:00,36.8,31.8,30.14,NNW,330,1.0,8.0,82,0.00,,---,0.00,VWS V14.01,2013-02-06 09:40:00,
2013-02-06 03:42:00,36.8,31.8,30.14,NNW,330,0.0,8.0,82,0.00,,---,0.00,VWS V14.01,2013-02-06 09:42:00,
2013-02-06 03:43:00,36.8,31.8,30.14,NNW,330,0.0,8.0,82,0.00,,---,0.00,VWS V14.01,2013-02-06 09:43:00,
2013-02-06 03:45:00,36.7,31.7,30.14,WNW,303,3.0,8.0,82,0.00,,---,0.00,VWS V14.01,2013-02-06 09:45:00,
2013-02-06 03:47:00,36.7,31.7,30.14,WNW,303,0.0,8.0,82,0.00,,---,0.00,VWS V14.01,2013-02-06 09:47:00,
2013-02-06 03:48:00,36.7,31.7,30.14,WNW,303,1.0,8.0,82,0.00,,---,0.00,VWS V14.01,2013-02-06 09:48:00,
2013-02-06 03:50:00,36.5,31.5,30.14,WNW,303,0.0,8.0,82,0.00,,---,0.00,VWS V14.01,2013-02-06 09:50:00,
2013-02-06 03:52:00,36.3,31.3,30.14,WNW,303,0.0,8.0,82,0.00,,---,0.00,VWS V14.01,2013-02-06 09:52:00,
2013-02-06 03:53:00,36.2,31.2,30.14,WNW,303,0.0,8.0,82,0.00,,---,0.00,VWS V14.01,2013-02-06 09:53:00,
2013-02-06 03:55:00,36.1,31.5,30.14,West,281,0.0,8.0,83,0.00,,---,0.00,VWS V14.01,2013-02-06 09:55:00,
2013-02-06 03:57:00,36.0,31.4,30.14,West,281,1.0,8.0,83,0.00,,---,0.00,VWS V14.01,2013-02-06 09:57:00,
2013-02-06 03:58:00,35.9,31.2,30.14,West,281,0.0,1.0,83,0.00,,---,0.00,VWS V14.01,2013-02-06 09:58:00,
2013-02-06 04:00:00,35.8,31.1,30.14,West,281,0.0,1.0,83,0.00,,---,0.00,VWS V14.01,2013-02-06 10:00:00,
2013-02-06 04:01:00,35.7,31.4,30.14,West,281,0.0,1.0,84,0.00,,---,0.00,VWS V14.01,2013-02-06 10:01:00,
2013-02-06 04:02:00,35.7,31.4,30.14,West,281,1.0,1.0,84,0.00,,---,0.00,VWS V14.01,2013-02-06 10:02:00,
2013-02-06 04:03:00,35.7,31.4,30.14,West,281,0.0,1.0,84,0.00,,---,0.00,VWS V14.01,2013-02-06 10:03:00,
2013-02-06 04:05:00,35.7,31.4,30.14,West,281,0.0,1.0,84,0.00,,---,0.00,VWS V14.01,2013-02-06 10:05:00,
2013-02-06 04:06:00,35.6,31.2,30.14,West,281,0.0,1.0,84,0.00,,---,0.00,VWS V14.01,2013-02-06 10:06:00,
2013-02-06 04:07:00,35.4,30.8,30.14,West,281,0.0,1.0,83,0.00,,---,0.00,VWS V14.01,2013-02-06 10:07:00,
2013-02-06 04:08:00,35.1,30.5,30.14,West,281,1.0,1.0,83,0.00,,---,0.00,VWS V14.01,2013-02-06 10:08:00,
2013-02-06 04:10:00,34.5,30.5,30.15,West,281,0.0,1.0,85,0.00,,---,0.00,VWS V14.01,2013-02-06 10:10:00,
2013-02-06 04:11:00,34.4,30.6,30.15,West,281,0.0,1.0,86,0.00,,---,0.00,VWS V14.01,2013-02-06 10:11:00,
2013-02-06 04:12:00,34.4,30.6,30.15,West,281,0.0,1.0,86,0.00,,---,0.00,VWS V14.01,2013-02-06 10:12:00,
2013-02-06 04:13:00,34.3,30.6,30.15,West,281,0.0,1.0,86,0.00,,---,0.00,VWS V14.01,2013-02-06 10:13:00,
2013-02-06 04:16:00,34.3,30.8,30.15,West,281,0.0,1.0,87,0.00,,---,0.00,VWS V14.01,2013-02-06 10:16:00,
2013-02-06 04:17:00,34.3,30.8,30.15,West,281,0.0,1.0,87,0.00,,---,0.00,VWS V14.01,2013-02-06 10:17:00,
2013-02-06 04:18:00,34.3,30.8,30.15,West,281,1.0,2.0,87,0.00,,---,0.00,VWS V14.01,2013-02-06 10:18:00,
2013-02-06 04:21:00,33.9,30.5,30.15,West,281,1.0,2.0,87,0.00,,---,0.00,VWS V14.01,2013-02-06 10:21:00,
2013-02-06 04:23:00,33.5,30.0,30.15,West,281,2.0,2.0,87,0.00,,---,0.00,VWS V14.01,2013-02-06 10:23:00,
2013-02-06 04:24:00,33.3,30.1,30.16,West,281,2.0,2.0,88,0.00,,---,0.00,VWS V14.01,2013-02-06 10:24:00,
2013-02-06 04:26:00,33.2,30.0,30.16,West,281,1.0,2.0,88,0.00,,---,0.00,VWS V14.01,2013-02-06 10:26:00,
2013-02-06 04:27:00,33.3,30.4,30.16,West,281,1.0,2.0,89,0.00,,---,0.00,VWS V14.01,2013-02-06 10:27:00,
2013-02-06 04:28:00,33.3,30.4,30.16,West,281,1.0,1.0,89,0.00,,---,0.00,VWS V14.01,2013-02-06 10:28:00,
2013-02-06 04:29:00,33.4,30.5,30.16,West,281,0.0,1.0,89,0.00,,---,0.00,VWS V14.01,2013-02-06 10:29:00,
2013-02-06 04:30:00,33.3,30.4,30.16,West,281,1.0,2.0,89,0.00,,---,0.00,VWS V14.01,2013-02-06 10:30:00,
2013-02-06 04:31:00,33.3,30.1,30.16,West,281,0.0,2.0,88,0.00,,---,0.00,VWS V14.01,2013-02-06 10:31:00,
2013-02-06 04:32:00,33.3,30.1,30.16,West,281,1.0,2.0,88,0.00,,---,0.00,VWS V14.01,2013-02-06 10:32:00,
2013-02-06 04:33:00,33.0,29.8,30.16,West,281,0.0,2.0,88,0.00,,---,0.00,VWS V14.01,2013-02-06 10:33:00,
2013-02-06 04:35:00,32.7,29.5,30.16,West,281,2.0,2.0,88,0.00,,---,0.00,VWS V14.01,2013-02-06 10:35:00,
2013-02-06 04:36:00,32.4,29.2,30.16,West,281,2.0,2.0,88,0.00,,---,0.00,VWS V14.01,2013-02-06 10:36:00,
2013-02-06 04:37:00,32.4,29.2,30.16,West,281,2.0,2.0,88,0.00,,---,0.00,VWS V14.01,2013-02-06 10:37:00,
2013-02-06 04:38:00,32.4,29.2,30.16,West,281,1.0,3.0,88,0.00,,---,0.00,VWS V14.01,2013-02-06 10:38:00,
2013-02-06 04:40:00,32.4,29.5,30.16,West,281,1.0,3.0,89,0.00,,---,0.00,VWS V14.01,2013-02-06 10:40:00,
2013-02-06 04:42:00,32.5,29.9,30.16,West,281,0.0,3.0,90,0.00,,---,0.00,VWS V14.01,2013-02-06 10:42:00,
2013-02-06 04:43:00,32.4,29.5,30.17,West,281,0.0,3.0,89,0.00,,---,0.00,VWS V14.01,2013-02-06 10:43:00,
2013-02-06 04:44:00,32.3,29.4,30.16,West,281,0.0,3.0,89,0.00,,---,0.00,VWS V14.01,2013-02-06 10:44:00,
2013-02-06 04:45:00,31.9,29.0,30.17,West,281,0.0,3.0,89,0.00,,---,0.00,VWS V14.01,2013-02-06 10:45:00,
2013-02-06 04:47:00,31.8,28.9,30.17,West,281,1.0,3.0,89,0.00,,---,0.00,VWS V14.01,2013-02-06 10:47:00,
2013-02-06 04:48:00,31.7,29.1,30.17,West,281,1.0,3.0,90,0.00,,---,0.00,VWS V14.01,2013-02-06 10:48:00,
2013-02-06 04:49:00,31.6,29.0,30.16,West,281,2.0,3.0,90,0.00,,---,0.00,VWS V14.01,2013-02-06 10:49:00,
2013-02-06 04:50:00,31.6,29.0,30.16,West,281,1.0,3.0,90,0.00,,---,0.00,VWS V14.01,2013-02-06 10:50:00,
2013-02-06 04:52:00,31.6,29.3,30.17,West,281,0.0,3.0,91,0.00,,---,0.00,VWS V14.01,2013-02-06 10:52:00,
2013-02-06 04:53:00,31.7,29.4,30.17,West,281,1.0,3.0,91,0.00,,---,0.00,VWS V14.01,2013-02-06 10:53:00,
2013-02-06 04:54:00,31.7,29.4,30.17,West,281,1.0,3.0,91,0.00,,---,0.00,VWS V14.01,2013-02-06 10:54:00,
2013-02-06 04:55:00,31.8,29.5,30.17,West,281,0.0,3.0,91,0.00,,---,0.00,VWS V14.01,2013-02-06 10:55:00,
2013-02-06 04:57:00,31.8,29.5,30.17,West,281,0.0,3.0,91,0.00,,---,0.00,VWS V14.01,2013-02-06 10:57:00,
2013-02-06 04:58:00,31.9,29.6,30.17,West,281,0.0,0.0,91,0.00,,---,0.00,VWS V14.01,2013-02-06 10:58:00,
2013-02-06 04:59:00,31.9,29.6,30.17,West,281,0.0,0.0,91,0.00,,---,0.00,VWS V14.01,2013-02-06 10:59:00,
2013-02-06 05:00:00,32.0,29.7,30.17,West,281,0.0,0.0,91,0.00,,---,0.00,VWS V14.01,2013-02-06 11:00:00,
2013-02-06 05:02:00,32.0,29.7,30.17,West,281,0.0,0.0,91,0.00,,---,0.00,VWS V14.01,2013-02-06 11:02:00,
2013-02-06 05:04:00,32.1,29.8,30.17,West,281,0.0,0.0,91,0.00,,---,0.00,VWS V14.01,2013-02-06 11:04:00,
2013-02-06 05:05:00,32.1,29.8,30.16,West,281,0.0,0.0,91,0.00,,---,0.00,VWS V14.01,2013-02-06 11:05:00,
2013-02-06 05:07:00,32.0,29.7,30.16,West,281,0.0,0.0,91,0.00,,---,0.00,VWS V14.01,2013-02-06 11:07:00,
2013-02-06 05:09:00,31.6,29.3,30.17,West,281,1.0,2.0,91,0.00,,---,0.00,VWS V14.01,2013-02-06 11:09:00,
2013-02-06 05:11:00,31.2,28.6,30.17,West,281,1.0,2.0,90,0.00,,---,0.00,VWS V14.01,2013-02-06 11:11:00,
2013-02-06 05:12:00,31.0,28.7,30.17,West,281,2.0,2.0,91,0.00,,---,0.00,VWS V14.01,2013-02-06 11:12:00,
2013-02-06 05:14:00,30.8,28.5,30.17,West,281,1.0,2.0,91,0.00,,---,0.00,VWS V14.01,2013-02-06 11:14:00,
2013-02-06 05:16:00,30.8,28.5,30.17,West,281,0.0,2.0,91,0.00,,---,0.00,VWS V14.01,2013-02-06 11:16:00,
2013-02-06 05:17:00,30.8,28.8,30.17,West,281,2.0,2.0,92,0.00,,---,0.00,VWS V14.01,2013-02-06 11:17:00,
2013-02-06 05:19:00,30.7,28.7,30.17,West,281,1.0,2.0,92,0.00,,---,0.00,VWS V14.01,2013-02-06 11:19:00,
2013-02-06 05:21:00,30.6,28.6,30.17,West,281,1.0,2.0,92,0.00,,---,0.00,VWS V14.01,2013-02-06 11:21:00,
2013-02-06 05:22:00,30.6,28.6,30.17,West,281,0.0,2.0,92,0.00,,---,0.00,VWS V14.01,2013-02-06 11:22:00,
2013-02-06 05:24:00,30.7,28.7,30.17,West,281,0.0,2.0,92,0.00,,---,0.00,VWS V14.01,2013-02-06 11:24:00,
2013-02-06 05:25:00,30.7,28.7,30.17,West,281,0.0,2.0,92,0.00,,---,0.00,VWS V14.01,2013-02-06 11:25:00,
2013-02-06 05:26:00,31.0,29.0,30.17,West,281,0.0,2.0,92,0.00,,---,0.00,VWS V14.01,2013-02-06 11:26:00,
2013-02-06 05:27:00,31.2,29.4,30.17,West,281,0.0,2.0,93,0.00,,---,0.00,VWS V14.01,2013-02-06 11:27:00,
2013-02-06 05:30:00,31.2,29.1,30.16,West,281,0.0,0.0,92,0.00,,---,0.00,VWS V14.01,2013-02-06 11:30:00,
2013-02-06 05:31:00,31.1,29.0,30.16,West,281,0.0,0.0,92,0.00,,---,0.00,VWS V14.01,2013-02-06 11:31:00,
2013-02-06 05:33:00,31.0,28.7,30.16,West,281,0.0,0.0,91,0.00,,---,0.00,VWS V14.01,2013-02-06 11:33:00,
2013-02-06 05:35:00,30.4,28.1,30.17,West,281,0.0,0.0,91,0.00,,---,0.00,VWS V14.01,2013-02-06 11:35:00,
2013-02-06 05:36:00,30.3,28.0,30.17,West,281,0.0,0.0,91,0.00,,---,0.00,VWS V14.01,2013-02-06 11:36:00,
2013-02-06 05:38:00,30.1,28.1,30.17,West,281,0.0,0.0,92,0.00,,---,0.00,VWS V14.01,2013-02-06 11:38:00,
2013-02-06 05:40:00,30.0,28.0,30.17,West,281,1.0,1.0,92,0.00,,---,0.00,VWS V14.01,2013-02-06 11:40:00,
2013-02-06 05:41:00,29.9,27.9,30.17,West,281,0.0,1.0,92,0.00,,---,0.00,VWS V14.01,2013-02-06 11:41:00,
2013-02-06 05:43:00,29.9,27.9,30.17,West,281,0.0,1.0,92,0.00,,---,0.00,VWS V14.01,2013-02-06 11:43:00,
2013-02-06 05:45:00,29.8,27.8,30.17,West,281,0.0,1.0,92,0.00,,---,0.00,VWS V14.01,2013-02-06 11:45:00,
2013-02-06 05:46:00,29.7,27.9,30.17,West,281,0.0,1.0,93,0.00,,---,0.00,VWS V14.01,2013-02-06 11:46:00,
2013-02-06 05:48:00,29.6,27.8,30.17,West,281,0.0,1.0,93,0.00,,---,0.00,VWS V14.01,2013-02-06 11:48:00,
2013-02-06 05:50:00,29.6,27.8,30.17,West,281,0.0,1.0,93,0.00,,---,0.00,VWS V14.01,2013-02-06 11:50:00,
2013-02-06 05:51:00,29.7,27.9,30.17,West,281,0.0,1.0,93,0.00,,---,0.00,VWS V14.01,2013-02-06 11:51:00,
2013-02-06 05:55:00,29.7,27.9,30.17,West,281,0.0,1.0,93,0.00,,---,0.00,VWS V14.01,2013-02-06 11:55:00,
2013-02-06 05:56:00,29.7,27.9,30.17,West,281,2.0,2.0,93,0.00,,---,0.00,VWS V14.01,2013-02-06 11:56:00,
2013-02-06 05:57:00,29.7,27.9,30.17,West,281,2.0,2.0,93,0.00,,---,0.00,VWS V14.01,2013-02-06 11:57:00,
2013-02-06 06:00:00,29.6,27.8,30.17,West,281,1.0,2.0,93,0.00,,---,0.00,VWS V14.01,2013-02-06 12:00:00,
2013-02-06 06:01:00,29.6,27.8,30.17,West,281,2.0,2.0,93,0.00,,---,0.00,VWS V14.01,2013-02-06 12:01:00,
2013-02-06 06:03:00,29.7,28.2,30.17,West,281,1.0,2.0,94,0.00,,---,0.00,VWS V14.01,2013-02-06 12:03:00,
2013-02-06 06:05:00,29.7,28.2,30.17,West,281,1.0,2.0,94,0.00,,---,0.00,VWS V14.01,2013-02-06 12:05:00,
2013-02-06 06:06:00,29.7,28.2,30.17,West,281,1.0,2.0,94,0.00,,---,0.00,VWS V14.01,2013-02-06 12:06:00,
2013-02-06 06:08:00,29.6,28.1,30.17,West,281,1.0,2.0,94,0.00,,---,0.00,VWS V14.01,2013-02-06 12:08:00,
2013-02-06 06:10:00,29.6,28.1,30.17,West,281,0.0,2.0,94,0.00,,---,0.00,VWS V14.01,2013-02-06 12:10:00,
2013-02-06 06:11:00,29.5,28.0,30.17,West,281,0.0,2.0,94,0.00,,---,0.00,VWS V14.01,2013-02-06 12:11:00,
2013-02-06 06:13:00,29.1,27.3,30.17,West,281,0.0,2.0,93,0.00,,---,0.00,VWS V14.01,2013-02-06 12:13:00,
2013-02-06 06:15:00,28.8,27.0,30.17,West,281,0.0,2.0,93,0.00,,---,0.00,VWS V14.01,2013-02-06 12:15:00,
2013-02-06 06:16:00,28.8,27.3,30.17,West,281,0.0,2.0,94,0.00,,---,0.00,VWS V14.01,2013-02-06 12:16:00,
2013-02-06 06:18:00,29.0,27.5,30.17,West,281,1.0,2.0,94,0.00,,---,0.00,VWS V14.01,2013-02-06 12:18:00,
2013-02-06 06:20:00,29.0,27.5,30.17,West,281,2.0,3.0,94,0.00,,---,0.00,VWS V14.01,2013-02-06 12:20:00,
2013-02-06 06:21:00,29.0,27.5,30.17,West,281,3.0,3.0,94,0.00,,---,0.00,VWS V14.01,2013-02-06 12:21:00,
2013-02-06 06:23:00,28.8,27.3,30.17,West,281,2.0,3.0,94,0.00,,---,0.00,VWS V14.01,2013-02-06 12:23:00,
2013-02-06 06:26:00,28.9,27.4,30.17,West,281,2.0,3.0,94,0.00,,---,0.00,VWS V14.01,2013-02-06 12:26:00,
2013-02-06 06:28:00,28.9,27.4,30.17,West,281,2.0,2.0,94,0.00,,---,0.00,VWS V14.01,2013-02-06 12:28:00,
2013-02-06 06:30:00,28.9,27.4,30.17,West,281,2.0,3.0,94,0.00,,---,0.00,VWS V14.01,2013-02-06 12:30:00,
2013-02-06 06:31:00,29.2,27.7,30.18,West,281,2.0,2.0,94,0.00,,---,0.00,VWS V14.01,2013-02-06 12:31:00,
2013-02-06 06:32:00,29.2,27.7,30.18,West,281,1.0,2.0,94,0.00,,---,0.00,VWS V14.01,2013-02-06 12:32:00,
2013-02-06 06:34:00,29.1,27.6,30.18,West,281,0.0,2.0,94,0.00,,---,0.00,VWS V14.01,2013-02-06 12:34:00,
2013-02-06 06:37:00,28.9,27.4,30.17,West,281,2.0,3.0,94,0.00,,---,0.00,VWS V14.01,2013-02-06 12:37:00,
2013-02-06 06:39:00,29.0,27.5,30.17,West,281,2.0,3.0,94,0.00,,---,0.00,VWS V14.01,2013-02-06 12:39:00,
2013-02-06 06:42:00,29.0,27.5,30.18,West,281,0.0,3.0,94,0.00,,---,0.00,VWS V14.01,2013-02-06 12:42:00,
2013-02-06 06:44:00,28.8,27.3,30.18,West,281,0.0,3.0,94,0.00,,---,0.00,VWS V14.01,2013-02-06 12:44:00,
2013-02-06 06:47:00,28.6,27.1,30.18,West,281,0.0,3.0,94,0.00,,---,0.00,VWS V14.01,2013-02-06 12:47:00,
2013-02-06 06:49:00,28.5,27.0,30.18,West,281,1.0,3.0,94,0.00,,---,0.00,VWS V14.01,2013-02-06 12:49:00,
2013-02-06 06:52:00,28.3,26.8,30.18,West,281,1.0,3.0,94,0.00,,---,0.00,VWS V14.01,2013-02-06 12:52:00,
2013-02-06 06:53:00,28.2,26.7,30.18,West,281,1.0,3.0,94,0.00,,---,0.00,VWS V14.01,2013-02-06 12:53:00,
2013-02-06 06:54:00,28.1,26.6,30.18,West,281,1.0,3.0,94,0.00,,---,0.00,VWS V14.01,2013-02-06 12:54:00,
2013-02-06 06:57:00,28.1,26.6,30.19,West,281,2.0,3.0,94,0.00,,---,0.00,VWS V14.01,2013-02-06 12:57:00,
2013-02-06 06:59:00,28.1,26.6,30.19,West,281,1.0,3.0,94,0.00,,---,0.00,VWS V14.01,2013-02-06 12:59:00,
2013-02-06 07:00:00,28.1,26.6,30.19,West,281,2.0,3.0,94,0.00,,---,0.00,VWS V14.01,2013-02-06 13:00:00,
2013-02-06 07:02:00,28.4,27.1,30.19,West,281,0.0,3.0,95,0.00,,---,0.00,VWS V14.01,2013-02-06 13:02:00,
2013-02-06 07:03:00,28.4,27.1,30.19,West,281,0.0,3.0,95,0.00,,---,0.00,VWS V14.01,2013-02-06 13:03:00,
2013-02-06 07:05:00,28.4,27.1,30.19,West,281,0.0,3.0,95,0.00,,---,0.00,VWS V14.01,2013-02-06 13:05:00,
2013-02-06 07:07:00,28.4,27.1,30.19,West,281,0.0,3.0,95,0.00,,---,0.00,VWS V14.01,2013-02-06 13:07:00,
2013-02-06 07:08:00,28.4,27.1,30.19,West,281,0.0,3.0,95,0.00,,---,0.00,VWS V14.01,2013-02-06 13:08:00,
2013-02-06 07:10:00,28.4,27.1,30.19,West,281,0.0,3.0,95,0.00,,---,0.00,VWS V14.01,2013-02-06 13:10:00,
2013-02-06 07:12:00,28.4,27.1,30.19,West,281,0.0,3.0,95,0.00,,---,0.00,VWS V14.01,2013-02-06 13:12:00,
2013-02-06 07:13:00,28.4,27.1,30.19,West,281,0.0,3.0,95,0.00,,---,0.00,VWS V14.01,2013-02-06 13:13:00,
2013-02-06 07:14:00,28.4,27.1,30.19,West,281,0.0,3.0,95,0.00,,---,0.00,VWS V14.01,2013-02-06 13:14:00,
2013-02-06 07:15:00,28.4,27.1,30.20,West,281,0.0,3.0,95,0.00,,---,0.00,VWS V14.01,2013-02-06 13:15:00,
2013-02-06 07:18:00,28.4,27.1,30.20,West,281,0.0,3.0,95,0.00,,---,0.00,VWS V14.01,2013-02-06 13:18:00,
2013-02-06 07:19:00,28.4,27.1,30.20,West,281,0.0,3.0,95,0.00,,---,0.00,VWS V14.01,2013-02-06 13:19:00,
2013-02-06 07:20:00,28.4,27.1,30.20,West,281,0.0,3.0,95,0.00,,---,0.00,VWS V14.01,2013-02-06 13:20:00,
2013-02-06 07:23:00,28.4,27.1,30.20,West,281,0.0,3.0,95,0.00,,---,0.00,VWS V14.01,2013-02-06 13:23:00,
2013-02-06 07:24:00,28.4,27.1,30.20,West,281,0.0,3.0,95,0.00,,---,0.00,VWS V14.01,2013-02-06 13:24:00,
2013-02-06 07:25:00,28.4,27.1,30.20,West,281,0.0,3.0,95,0.00,,---,0.00,VWS V14.01,2013-02-06 13:25:00,
2013-02-06 07:28:00,28.5,27.2,30.20,West,281,0.0,0.0,95,0.00,,---,0.00,VWS V14.01,2013-02-06 13:28:00,
2013-02-06 07:29:00,28.5,27.2,30.20,West,281,0.0,0.0,95,0.00,,---,0.00,VWS V14.01,2013-02-06 13:29:00,
2013-02-06 07:30:00,28.5,27.2,30.20,West,281,0.0,0.0,95,0.00,,---,0.00,VWS V14.01,2013-02-06 13:30:00,
2013-02-06 07:33:00,28.4,27.1,30.20,West,281,1.0,1.0,95,0.00,,---,0.00,VWS V14.01,2013-02-06 13:33:00,
2013-02-06 07:34:00,28.4,27.1,30.20,West,281,0.0,1.0,95,0.00,,---,0.00,VWS V14.01,2013-02-06 13:34:00,
2013-02-06 07:35:00,28.6,27.4,30.20,West,281,0.0,1.0,95,0.00,,---,0.00,VWS V14.01,2013-02-06 13:35:00,
2013-02-06 07:38:00,29.1,27.9,30.20,West,281,0.0,1.0,95,0.00,,---,0.00,VWS V14.01,2013-02-06 13:38:00,
2013-02-06 07:39:00,29.2,28.0,30.20,West,281,0.0,1.0,95,0.00,,---,0.00,VWS V14.01,2013-02-06 13:39:00,
2013-02-06 07:40:00,29.3,28.0,30.20,West,281,0.0,1.0,95,0.00,,---,0.00,VWS V14.01,2013-02-06 13:40:00,
2013-02-06 07:43:00,29.2,28.0,30.21,West,281,1.0,2.0,95,0.00,,---,0.00,VWS V14.01,2013-02-06 13:43:00,
2013-02-06 07:44:00,29.2,28.0,30.21,West,281,1.0,2.0,95,0.00,,---,0.00,VWS V14.01,2013-02-06 13:44:00,
2013-02-06 07:45:00,28.9,27.4,30.21,West,281,1.0,2.0,94,0.00,,---,0.00,VWS V14.01,2013-02-06 13:45:00,
2013-02-06 07:49:00,29.2,28.0,30.21,West,281,0.0,2.0,95,0.00,,---,0.00,VWS V14.01,2013-02-06 13:49:00,
2013-02-06 07:50:00,29.3,28.0,30.21,West,281,0.0,2.0,95,0.00,,---,0.00,VWS V14.01,2013-02-06 13:50:00,
2013-02-06 07:51:00,29.4,28.1,30.21,West,281,0.0,2.0,95,0.00,,---,0.00,VWS V14.01,2013-02-06 13:51:00,
2013-02-06 07:54:00,30.4,29.1,30.21,West,281,0.0,2.0,95,0.00,,---,0.00,VWS V14.01,2013-02-06 13:54:00,
2013-02-06 07:55:00,30.6,29.3,30.22,West,281,0.0,2.0,95,0.00,,---,0.00,VWS V14.01,2013-02-06 13:55:00,
2013-02-06 07:56:00,30.4,29.1,30.22,West,281,0.0,2.0,95,0.00,,---,0.00,VWS V14.01,2013-02-06 13:56:00,
2013-02-06 07:59:00,30.3,29.0,30.22,West,281,0.0,0.0,95,0.00,,---,0.00,VWS V14.01,2013-02-06 13:59:00,
2013-02-06 08:00:00,30.3,29.0,30.22,West,281,0.0,0.0,95,0.00,,---,0.00,VWS V14.01,2013-02-06 14:00:00,
2013-02-06 08:01:00,30.4,29.1,30.22,West,281,0.0,0.0,95,0.00,,---,0.00,VWS V14.01,2013-02-06 14:01:00,
2013-02-06 08:04:00,30.7,29.2,30.22,West,281,0.0,0.0,94,0.00,,---,0.00,VWS V14.01,2013-02-06 14:04:00,
2013-02-06 08:05:00,31.2,29.9,30.22,West,281,0.0,0.0,95,0.00,,---,0.00,VWS V14.01,2013-02-06 14:05:00,
2013-02-06 08:06:00,31.5,30.2,30.22,West,281,0.0,0.0,95,0.00,,---,0.00,VWS V14.01,2013-02-06 14:06:00,
2013-02-06 08:09:00,31.4,29.9,30.22,West,281,0.0,0.0,94,0.00,,---,0.00,VWS V14.01,2013-02-06 14:09:00,
2013-02-06 08:10:00,31.3,29.8,30.22,West,281,0.0,0.0,94,0.00,,---,0.00,VWS V14.01,2013-02-06 14:10:00,
2013-02-06 08:12:00,31.4,29.9,30.22,West,281,0.0,0.0,94,0.00,,---,0.00,VWS V14.01,2013-02-06 14:12:00,
2013-02-06 08:14:00,31.8,30.3,30.22,West,281,0.0,0.0,94,0.00,,---,0.00,VWS V14.01,2013-02-06 14:14:00,
2013-02-06 08:15:00,31.8,30.3,30.22,West,281,0.0,0.0,94,0.00,,---,0.00,VWS V14.01,2013-02-06 14:15:00,
2013-02-06 08:17:00,32.2,30.7,30.22,West,281,0.0,0.0,94,0.00,,---,0.00,VWS V14.01,2013-02-06 14:17:00,
2013-02-06 08:19:00,32.8,31.3,30.22,West,281,0.0,0.0,94,0.00,,---,0.00,VWS V14.01,2013-02-06 14:19:00,
2013-02-06 08:20:00,32.8,31.3,30.22,West,281,0.0,0.0,94,0.00,,---,0.00,VWS V14.01,2013-02-06 14:20:00,
2013-02-06 08:21:00,33.0,31.5,30.22,West,281,0.0,0.0,94,0.00,,---,0.00,VWS V14.01,2013-02-06 14:21:00,
2013-02-06 08:22:00,33.4,31.9,30.22,West,281,0.0,0.0,94,0.00,,---,0.00,VWS V14.01,2013-02-06 14:22:00,
2013-02-06 08:24:00,33.8,32.3,30.22,West,281,0.0,0.0,94,0.00,,---,0.00,VWS V14.01,2013-02-06 14:24:00,
2013-02-06 08:25:00,33.9,32.4,30.22,West,281,0.0,0.0,94,0.00,,---,0.00,VWS V14.01,2013-02-06 14:25:00,
2013-02-06 08:26:00,33.9,32.4,30.22,West,281,0.0,0.0,94,0.00,,---,0.00,VWS V14.01,2013-02-06 14:26:00,
2013-02-06 08:27:00,33.9,32.4,30.22,West,281,0.0,0.0,94,0.00,,---,0.00,VWS V14.01,2013-02-06 14:27:00,
2013-02-06 08:30:00,34.6,33.0,30.22,West,281,0.0,0.0,94,0.00,,---,0.00,VWS V14.01,2013-02-06 14:30:00,
2013-02-06 08:31:00,35.0,33.5,30.22,West,281,0.0,0.0,94,0.00,,---,0.00,VWS V14.01,2013-02-06 14:31:00,
2013-02-06 08:32:00,35.0,33.5,30.22,West,281,0.0,0.0,94,0.00,,---,0.00,VWS V14.01,2013-02-06 14:32:00,
2013-02-06 08:35:00,35.5,33.4,30.22,West,281,0.0,0.0,92,0.00,,---,0.00,VWS V14.01,2013-02-06 14:35:00,
2013-02-06 08:36:00,35.8,33.4,30.22,West,281,0.0,1.0,91,0.00,,---,0.00,VWS V14.01,2013-02-06 14:36:00,
2013-02-06 08:37:00,36.0,33.4,30.22,West,281,0.0,1.0,90,0.00,,---,0.00,VWS V14.01,2013-02-06 14:37:00,
2013-02-06 08:40:00,36.3,33.7,30.21,West,281,1.0,1.0,90,0.00,,---,0.00,VWS V14.01,2013-02-06 14:40:00,
2013-02-06 08:41:00,36.2,33.6,30.21,West,281,0.0,1.0,90,0.00,,---,0.00,VWS V14.01,2013-02-06 14:41:00,
2013-02-06 08:42:00,36.1,33.5,30.22,West,281,0.0,1.0,90,0.00,,---,0.00,VWS V14.01,2013-02-06 14:42:00,
2013-02-06 08:45:00,36.3,33.7,30.21,West,281,0.0,1.0,90,0.00,,---,0.00,VWS V14.01,2013-02-06 14:45:00,
2013-02-06 08:46:00,36.4,33.8,30.22,West,281,0.0,1.0,90,0.00,,---,0.00,VWS V14.01,2013-02-06 14:46:00,
2013-02-06 08:47:00,36.4,33.2,30.22,West,281,0.0,1.0,88,0.00,,---,0.00,VWS V14.01,2013-02-06 14:47:00,
2013-02-06 08:50:00,36.6,33.4,30.21,West,281,0.0,1.0,88,0.00,,---,0.00,VWS V14.01,2013-02-06 14:50:00,
2013-02-06 08:51:00,36.6,33.4,30.22,NNE,14,2.0,2.0,88,0.00,,---,0.00,VWS V14.01,2013-02-06 14:51:00,
2013-02-06 08:53:00,36.9,33.7,30.22,NNE,23,1.0,3.0,88,0.00,,---,0.00,VWS V14.01,2013-02-06 14:53:00,
2013-02-06 08:55:00,37.0,33.5,30.22,NNE,26,2.0,4.0,87,0.00,,---,0.00,VWS V14.01,2013-02-06 14:55:00,
2013-02-06 08:56:00,37.1,33.3,30.22,NE,37,3.0,4.0,86,0.00,,---,0.00,VWS V14.01,2013-02-06 14:56:00,
2013-02-06 08:58:00,37.2,33.4,30.22,East,87,2.0,3.0,86,0.00,,---,0.00,VWS V14.01,2013-02-06 14:58:00,
2013-02-06 09:00:00,37.0,32.9,30.22,East,87,2.0,3.0,85,0.00,,---,0.00,VWS V14.01,2013-02-06 15:00:00,
2013-02-06 09:01:00,37.0,33.2,30.22,East,87,1.0,3.0,86,0.00,,---,0.00,VWS V14.01,2013-02-06 15:01:00,
2013-02-06 09:03:00,37.1,33.0,30.22,East,87,0.0,3.0,85,0.00,,---,0.00,VWS V14.01,2013-02-06 15:03:00,
2013-02-06 09:06:00,37.4,33.3,30.23,ESE,106,2.0,3.0,85,0.00,,---,0.00,VWS V14.01,2013-02-06 15:06:00,
2013-02-06 09:08:00,37.7,33.6,30.23,ESE,106,0.0,4.0,85,0.00,,---,0.00,VWS V14.01,2013-02-06 15:08:00,
2013-02-06 09:11:00,37.8,33.4,30.23,ESE,106,3.0,4.0,84,0.00,,---,0.00,VWS V14.01,2013-02-06 15:11:00,
2013-02-06 09:12:00,37.9,33.5,30.23,ESE,106,1.0,4.0,84,0.00,,---,0.00,VWS V14.01,2013-02-06 15:12:00,
2013-02-06 09:13:00,38.0,33.6,30.23,ESE,106,2.0,4.0,84,0.00,,---,0.00,VWS V14.01,2013-02-06 15:13:00,
2013-02-06 09:16:00,38.6,34.5,30.23,ESE,106,2.0,5.0,85,0.00,,---,0.00,VWS V14.01,2013-02-06 15:16:00,
2013-02-06 09:17:00,38.7,34.6,30.22,ESE,106,1.0,5.0,85,0.00,,---,0.00,VWS V14.01,2013-02-06 15:17:00,
2013-02-06 09:18:00,38.7,33.7,30.22,ESE,106,1.0,5.0,82,0.00,,---,0.00,VWS V14.01,2013-02-06 15:18:00,
2013-02-06 09:21:00,38.8,34.1,30.22,North,354,4.0,5.0,83,0.00,,---,0.00,VWS V14.01,2013-02-06 15:21:00,
2013-02-06 09:22:00,39.0,34.3,30.22,North,349,2.0,5.0,83,0.00,,---,0.00,VWS V14.01,2013-02-06 15:22:00,
2013-02-06 09:23:00,39.3,34.9,30.22,NE,50,5.0,6.0,84,0.00,,---,0.00,VWS V14.01,2013-02-06 15:23:00,
2013-02-06 09:27:00,39.1,34.1,30.22,NE,50,3.0,6.0,82,0.00,,---,0.00,VWS V14.01,2013-02-06 15:27:00,
2013-02-06 09:28:00,39.2,33.9,30.23,NE,48,2.0,4.0,81,0.00,,---,0.00,VWS V14.01,2013-02-06 15:28:00,
2013-02-06 09:30:00,39.1,34.1,30.22,NE,48,4.0,6.0,82,0.00,,---,0.00,VWS V14.01,2013-02-06 15:30:00,
2013-02-06 09:32:00,39.6,34.6,30.23,ENE,71,6.0,6.0,82,0.00,,---,0.00,VWS V14.01,2013-02-06 15:32:00,
2013-02-06 09:33:00,39.7,34.0,30.23,ENE,59,7.0,9.0,80,0.00,,---,0.00,VWS V14.01,2013-02-06 15:33:00,
2013-02-06 09:37:00,39.5,33.5,30.23,ENE,73,5.0,9.0,79,0.00,,---,0.00,VWS V14.01,2013-02-06 15:37:00,
2013-02-06 09:38:00,39.5,33.5,30.23,ENE,74,5.0,9.0,79,0.00,,---,0.00,VWS V14.01,2013-02-06 15:38:00,
2013-02-06 09:42:00,39.7,34.0,30.23,ENE,77,3.0,9.0,80,0.00,,---,0.00,VWS V14.01,2013-02-06 15:42:00,
2013-02-06 09:44:00,39.9,34.2,30.23,NE,50,5.0,9.0,80,0.00,,---,0.00,VWS V14.01,2013-02-06 15:44:00,
2013-02-06 09:47:00,39.9,33.6,30.23,NE,56,7.0,9.0,78,0.00,,---,0.00,VWS V14.01,2013-02-06 15:47:00,
2013-02-06 09:48:00,39.9,33.6,30.23,ENE,63,7.0,9.0,78,0.00,,---,0.00,VWS V14.01,2013-02-06 15:48:00,
2013-02-06 09:49:00,39.8,33.5,30.23,NE,41,3.0,9.0,78,0.00,,---,0.00,VWS V14.01,2013-02-06 15:49:00,
2013-02-06 09:52:00,39.9,33.6,30.23,NE,50,5.0,9.0,78,0.00,,---,0.00,VWS V14.01,2013-02-06 15:52:00,
2013-02-06 09:54:00,39.9,33.6,30.23,NE,46,1.0,9.0,78,0.00,,---,0.00,VWS V14.01,2013-02-06 15:54:00,
2013-02-06 09:57:00,40.0,33.4,30.22,NE,41,5.0,9.0,77,0.00,,---,0.00,VWS V14.01,2013-02-06 15:57:00,
2013-02-06 09:59:00,40.1,33.8,30.22,North,4,6.0,8.0,78,0.00,,---,0.00,VWS V14.01,2013-02-06 15:59:00,
2013-02-06 10:00:00,40.2,33.9,30.22,North,6,2.0,8.0,78,0.00,,---,0.00,VWS V14.01,2013-02-06 16:00:00,
2013-02-06 10:02:00,40.5,33.5,30.22,North,357,4.0,8.0,76,0.00,,---,0.00,VWS V14.01,2013-02-06 16:02:00,
2013-02-06 10:04:00,40.7,34.4,30.22,North,356,5.0,8.0,78,0.00,,---,0.00,VWS V14.01,2013-02-06 16:04:00,
2013-02-06 10:05:00,40.9,35.2,30.22,NE,41,8.0,8.0,80,0.00,,---,0.00,VWS V14.01,2013-02-06 16:05:00,
2013-02-06 10:07:00,41.0,34.3,30.22,NNE,23,2.0,8.0,77,0.00,,---,0.00,VWS V14.01,2013-02-06 16:07:00,
2013-02-06 10:08:00,40.9,33.6,30.22,NNE,23,3.0,8.0,75,0.00,,---,0.00,VWS V14.01,2013-02-06 16:08:00,
2013-02-06 10:10:00,41.1,33.8,30.22,ENE,75,8.0,10.0,75,0.00,,---,0.00,VWS V14.01,2013-02-06 16:10:00,
2013-02-06 10:11:00,41.1,33.8,30.22,NE,46,8.0,10.0,75,0.00,,---,0.00,VWS V14.01,2013-02-06 16:11:00,
2013-02-06 10:12:00,41.0,33.4,30.22,ENE,70,6.0,10.0,74,0.00,,---,0.00,VWS V14.01,2013-02-06 16:12:00,
2013-02-06 10:13:00,41.0,33.7,30.22,ENE,68,7.0,10.0,75,0.00,,---,0.00,VWS V14.01,2013-02-06 16:13:00,
2013-02-06 10:15:00,41.1,34.1,30.22,East,88,5.0,10.0,76,0.00,,---,0.00,VWS V14.01,2013-02-06 16:15:00,
2013-02-06 10:16:00,41.2,34.2,30.22,East,81,5.0,10.0,76,0.00,,---,0.00,VWS V14.01,2013-02-06 16:16:00,
2013-02-06 10:18:00,41.3,33.7,30.22,East,99,3.0,10.0,74,0.00,,---,0.00,VWS V14.01,2013-02-06 16:18:00,
2013-02-06 10:20:00,41.4,34.7,30.22,East,88,7.0,10.0,77,0.00,,---,0.00,VWS V14.01,2013-02-06 16:20:00,
2013-02-06 10:21:00,41.4,34.1,30.22,NE,50,7.0,10.0,75,0.00,,---,0.00,VWS V14.01,2013-02-06 16:21:00,
2013-02-06 10:23:00,41.3,34.0,30.22,NE,46,3.0,10.0,75,0.00,,---,0.00,VWS V14.01,2013-02-06 16:23:00,
2013-02-06 10:25:00,41.3,34.0,30.22,ESE,104,3.0,10.0,75,0.00,,---,0.00,VWS V14.01,2013-02-06 16:25:00,
2013-02-06 10:26:00,41.4,34.4,30.22,East,83,3.0,10.0,76,0.00,,---,0.00,VWS V14.01,2013-02-06 16:26:00,
2013-02-06 10:28:00,41.7,34.7,30.22,East,100,3.0,3.0,76,0.00,,---,0.00,VWS V14.01,2013-02-06 16:28:00,
2013-02-06 10:30:00,42.1,34.8,30.22,NE,41,8.0,8.0,75,0.00,,---,0.00,VWS V14.01,2013-02-06 16:30:00,
2013-02-06 10:31:00,42.0,34.3,30.22,NE,54,7.0,8.0,74,0.00,,---,0.00,VWS V14.01,2013-02-06 16:31:00,
2013-02-06 10:33:00,42.0,34.3,30.22,ENE,69,8.0,9.0,74,0.00,,---,0.00,VWS V14.01,2013-02-06 16:33:00,
2013-02-06 10:35:00,41.8,33.5,30.22,NE,56,5.0,9.0,72,0.00,,---,0.00,VWS V14.01,2013-02-06 16:35:00,
2013-02-06 10:37:00,41.7,33.7,30.22,ENE,77,3.0,9.0,73,0.00,,---,0.00,VWS V14.01,2013-02-06 16:37:00,
2013-02-06 10:38:00,41.7,34.4,30.22,NE,46,7.0,9.0,75,0.00,,---,0.00,VWS V14.01,2013-02-06 16:38:00,
2013-02-06 10:40:00,41.8,34.1,30.22,NE,39,7.0,9.0,74,0.00,,---,0.00,VWS V14.01,2013-02-06 16:40:00,
2013-02-06 10:42:00,41.8,34.1,30.22,East,86,4.0,9.0,74,0.00,,---,0.00,VWS V14.01,2013-02-06 16:42:00,
2013-02-06 10:43:00,42.0,34.3,30.21,ENE,69,8.0,9.0,74,0.00,,---,0.00,VWS V14.01,2013-02-06 16:43:00,
2013-02-06 10:45:00,41.9,34.2,30.22,NE,42,4.0,9.0,74,0.00,,---,0.00,VWS V14.01,2013-02-06 16:45:00,
2013-02-06 10:47:00,42.3,35.0,30.22,ENE,75,5.0,9.0,75,0.00,,---,0.00,VWS V14.01,2013-02-06 16:47:00,
2013-02-06 10:48:00,42.3,34.3,30.22,ENE,59,6.0,9.0,73,0.00,,---,0.00,VWS V14.01,2013-02-06 16:48:00,
2013-02-06 10:50:00,42.2,34.9,30.22,ENE,71,5.0,9.0,75,0.00,,---,0.00,VWS V14.01,2013-02-06 16:50:00,
2013-02-06 10:52:00,42.3,34.6,30.21,ENE,69,7.0,9.0,74,0.00,,---,0.00,VWS V14.01,2013-02-06 16:52:00,
2013-02-06 10:53:00,42.6,34.9,30.21,NE,52,6.0,9.0,74,0.00,,---,0.00,VWS V14.01,2013-02-06 16:53:00,
2013-02-06 10:55:00,42.5,34.1,30.22,ENE,71,3.0,9.0,72,0.00,,---,0.00,VWS V14.01,2013-02-06 16:55:00,
2013-02-06 10:57:00,42.8,34.8,30.21,ENE,72,5.0,9.0,73,0.00,,---,0.00,VWS V14.01,2013-02-06 16:57:00,
2013-02-06 10:58:00,42.9,34.8,30.22,NE,44,2.0,7.0,73,0.00,,---,0.00,VWS V14.01,2013-02-06 16:58:00,
2013-02-06 10:59:00,42.9,34.5,30.22,ENE,69,3.0,7.0,72,0.00,,---,0.00,VWS V14.01,2013-02-06 16:59:00,
2013-02-06 11:00:00,42.8,34.1,30.22,NE,46,0.0,7.0,71,0.00,,---,0.00,VWS V14.01,2013-02-06 17:00:00,
2013-02-06 11:02:00,43.1,35.0,30.22,East,87,9.0,9.0,73,0.00,,---,0.00,VWS V14.01,2013-02-06 17:02:00,
2013-02-06 11:04:00,43.2,34.8,30.22,East,84,3.0,10.0,72,0.00,,---,0.00,VWS V14.01,2013-02-06 17:04:00,
2013-02-06 11:06:00,43.2,35.1,30.22,ENE,76,3.0,10.0,73,0.00,,---,0.00,VWS V14.01,2013-02-06 17:06:00,
2013-02-06 11:07:00,43.6,35.9,30.22,East,89,4.0,10.0,74,0.00,,---,0.00,VWS V14.01,2013-02-06 17:07:00,
2013-02-06 11:09:00,43.8,35.4,30.22,NE,52,6.0,10.0,72,0.00,,---,0.00,VWS V14.01,2013-02-06 17:09:00,
2013-02-06 11:10:00,43.6,34.1,30.22,NE,37,2.0,10.0,69,0.00,,---,0.00,VWS V14.01,2013-02-06 17:10:00,
2013-02-06 11:11:00,43.5,34.0,30.22,NE,37,1.0,10.0,69,0.00,,---,0.00,VWS V14.01,2013-02-06 17:11:00,
2013-02-06 11:12:00,43.5,35.1,30.22,East,95,5.0,10.0,72,0.00,,---,0.00,VWS V14.01,2013-02-06 17:12:00,
2013-02-06 11:14:00,43.6,35.2,30.22,ESE,111,5.0,10.0,72,0.00,,---,0.00,VWS V14.01,2013-02-06 17:14:00,
2013-02-06 11:15:00,43.7,35.3,30.22,ESE,117,3.0,10.0,72,0.00,,---,0.00,VWS V14.01,2013-02-06 17:15:00,
2013-02-06 11:16:00,43.7,35.3,30.22,East,80,3.0,10.0,72,0.00,,---,0.00,VWS V14.01,2013-02-06 17:16:00,
2013-02-06 11:18:00,43.7,34.9,30.22,East,80,1.0,10.0,71,0.00,,---,0.00,VWS V14.01,2013-02-06 17:18:00,
2013-02-06 11:19:00,43.8,35.4,30.22,East,83,1.0,10.0,72,0.00,,---,0.00,VWS V14.01,2013-02-06 17:19:00,
2013-02-06 11:20:00,44.0,35.6,30.22,East,96,5.0,10.0,72,0.00,,---,0.00,VWS V14.01,2013-02-06 17:20:00,
2013-02-06 11:21:00,44.1,35.7,30.22,East,85,5.0,10.0,72,0.00,,---,0.00,VWS V14.01,2013-02-06 17:21:00,
2013-02-06 11:23:00,44.2,35.4,30.22,East,87,4.0,10.0,71,0.00,,---,0.00,VWS V14.01,2013-02-06 17:23:00,
2013-02-06 11:24:00,44.2,35.4,30.22,ENE,60,2.0,10.0,71,0.00,,---,0.00,VWS V14.01,2013-02-06 17:24:00,
2013-02-06 11:25:00,44.2,35.0,30.22,ESE,106,2.0,10.0,70,0.00,,---,0.00,VWS V14.01,2013-02-06 17:25:00,
2013-02-06 11:26:00,44.2,35.0,30.22,East,100,3.0,10.0,70,0.00,,---,0.00,VWS V14.01,2013-02-06 17:26:00,
2013-02-06 11:28:00,44.5,36.4,30.21,ENE,75,5.0,10.0,73,0.00,,---,0.00,VWS V14.01,2013-02-06 17:28:00,
2013-02-06 11:29:00,44.4,34.9,30.21,East,90,2.0,10.0,69,0.00,,---,0.00,VWS V14.01,2013-02-06 17:29:00,
2013-02-06 11:30:00,44.3,35.2,30.22,East,82,4.0,10.0,70,0.00,,---,0.00,VWS V14.01,2013-02-06 17:30:00,
2013-02-06 11:31:00,44.2,34.3,30.21,East,89,4.0,10.0,68,0.00,,---,0.00,VWS V14.01,2013-02-06 17:31:00,
2013-02-06 11:33:00,44.2,34.7,30.21,East,79,1.0,10.0,69,0.00,,---,0.00,VWS V14.01,2013-02-06 17:33:00,
2013-02-06 11:34:00,44.4,35.2,30.20,NNE,14,4.0,10.0,70,0.00,,---,0.00,VWS V14.01,2013-02-06 17:34:00,
2013-02-06 11:36:00,44.5,35.0,30.20,ENE,59,5.0,10.0,69,0.00,,---,0.00,VWS V14.01,2013-02-06 17:36:00,
2013-02-06 11:39:00,44.8,35.3,30.20,North,11,1.0,10.0,69,0.00,,---,0.00,VWS V14.01,2013-02-06 17:39:00,
2013-02-06 11:41:00,44.8,35.6,30.20,East,87,3.0,10.0,70,0.00,,---,0.00,VWS V14.01,2013-02-06 17:41:00,
2013-02-06 11:44:00,44.9,35.0,30.20,East,83,3.0,10.0,68,0.00,,---,0.00,VWS V14.01,2013-02-06 17:44:00,
2013-02-06 11:46:00,45.1,35.2,30.20,East,81,4.0,10.0,68,0.00,,---,0.00,VWS V14.01,2013-02-06 17:46:00,
2013-02-06 11:49:00,45.3,35.0,30.20,East,98,4.0,10.0,67,0.00,,---,0.00,VWS V14.01,2013-02-06 17:49:00,
2013-02-06 11:50:00,45.2,34.5,30.19,East,96,2.0,10.0,66,0.00,,---,0.00,VWS V14.01,2013-02-06 17:50:00,
2013-02-06 11:51:00,45.1,34.8,30.19,East,89,4.0,10.0,67,0.00,,---,0.00,VWS V14.01,2013-02-06 17:51:00,
2013-02-06 11:54:00,45.3,35.0,30.19,East,89,0.0,10.0,67,0.00,,---,0.00,VWS V14.01,2013-02-06 17:54:00,
2013-02-06 11:55:00,45.5,35.6,30.19,NE,45,4.0,10.0,68,0.00,,---,0.00,VWS V14.01,2013-02-06 17:55:00,
2013-02-06 11:56:00,45.8,35.8,30.18,ENE,57,5.0,10.0,68,0.00,,---,0.00,VWS V14.01,2013-02-06 17:56:00,
2013-02-06 11:57:00,45.8,35.8,30.18,NE,56,5.0,10.0,68,0.00,,---,0.00,VWS V14.01,2013-02-06 17:57:00,
2013-02-06 11:59:00,45.9,36.7,30.18,NE,36,7.0,9.0,70,0.00,,---,0.00,VWS V14.01,2013-02-06 17:59:00,
2013-02-06 12:00:00,45.6,35.7,30.18,NE,46,2.0,10.0,68,0.00,,---,0.00,VWS V14.01,2013-02-06 18:00:00,
2013-02-06 12:01:00,46.1,35.8,30.17,ENE,59,6.0,9.0,67,0.00,,---,0.00,VWS V14.01,2013-02-06 18:01:00,
2013-02-06 12:02:00,45.8,35.1,30.18,East,87,3.0,9.0,66,0.00,,---,0.00,VWS V14.01,2013-02-06 18:02:00,
2013-02-06 12:05:00,45.8,35.8,30.17,NE,49,0.0,9.0,68,0.00,,---,0.00,VWS V14.01,2013-02-06 18:05:00,
2013-02-06 12:06:00,45.9,36.0,30.18,NNE,25,2.0,9.0,68,0.00,,---,0.00,VWS V14.01,2013-02-06 18:06:00,
2013-02-06 12:07:00,46.1,36.5,30.18,NNE,31,2.0,9.0,69,0.00,,---,0.00,VWS V14.01,2013-02-06 18:07:00,
2013-02-06 12:10:00,46.5,37.3,30.17,ENE,77,3.0,9.0,70,0.00,,---,0.00,VWS V14.01,2013-02-06 18:10:00,
2013-02-06 12:11:00,46.5,36.2,30.17,East,79,5.0,9.0,67,0.00,,---,0.00,VWS V14.01,2013-02-06 18:11:00,
2013-02-06 12:12:00,46.4,36.0,30.17,ENE,75,5.0,9.0,67,0.00,,---,0.00,VWS V14.01,2013-02-06 18:12:00,
2013-02-06 12:16:00,46.3,36.0,30.17,ENE,62,6.0,9.0,67,0.00,,---,0.00,VWS V14.01,2013-02-06 18:16:00,
2013-02-06 12:17:00,46.9,36.9,30.17,ENE,73,4.0,9.0,68,0.00,,---,0.00,VWS V14.01,2013-02-06 18:17:00,
2013-02-06 12:21:00,46.9,36.2,30.17,ENE,62,3.0,9.0,66,0.00,,---,0.00,VWS V14.01,2013-02-06 18:21:00,
2013-02-06 12:22:00,46.9,36.2,30.17,NE,48,2.0,9.0,66,0.00,,---,0.00,VWS V14.01,2013-02-06 18:22:00,
2013-02-06 12:23:00,47.1,37.1,30.16,ENE,59,5.0,9.0,68,0.00,,---,0.00,VWS V14.01,2013-02-06 18:23:00,
2013-02-06 12:26:00,47.4,37.0,30.16,East,87,7.0,9.0,67,0.00,,---,0.00,VWS V14.01,2013-02-06 18:26:00,
2013-02-06 12:27:00,47.4,37.0,30.16,East,84,4.0,9.0,67,0.00,,---,0.00,VWS V14.01,2013-02-06 18:27:00,
2013-02-06 12:28:00,47.2,36.0,30.16,ESE,102,3.0,4.0,65,0.00,,---,0.00,VWS V14.01,2013-02-06 18:28:00,
2013-02-06 12:30:00,47.3,36.2,30.16,East,79,3.0,9.0,65,0.00,,---,0.00,VWS V14.01,2013-02-06 18:30:00,
2013-02-06 12:31:00,47.1,36.0,30.16,NE,39,7.0,9.0,65,0.00,,---,0.00,VWS V14.01,2013-02-06 18:31:00,
2013-02-06 12:32:00,47.0,35.5,30.16,ENE,65,6.0,9.0,64,0.00,,---,0.00,VWS V14.01,2013-02-06 18:32:00,
2013-02-06 12:33:00,46.9,35.4,30.15,NE,44,1.0,9.0,64,0.00,,---,0.00,VWS V14.01,2013-02-06 18:33:00,
2013-02-06 12:36:00,47.2,35.7,30.15,East,91,3.0,9.0,64,0.00,,---,0.00,VWS V14.01,2013-02-06 18:36:00,
2013-02-06 12:37:00,47.2,35.7,30.15,NE,36,4.0,9.0,64,0.00,,---,0.00,VWS V14.01,2013-02-06 18:37:00,
2013-02-06 12:38:00,47.5,35.9,30.15,NNE,23,4.0,9.0,64,0.00,,---,0.00,VWS V14.01,2013-02-06 18:38:00,
2013-02-06 12:41:00,47.7,36.1,30.15,ENE,74,7.0,9.0,64,0.00,,---,0.00,VWS V14.01,2013-02-06 18:41:00,
2013-02-06 12:42:00,47.8,36.2,30.15,ENE,68,7.0,9.0,64,0.00,,---,0.00,VWS V14.01,2013-02-06 18:42:00,
2013-02-06 12:43:00,47.5,34.3,30.15,ENE,60,0.0,9.0,60,0.00,,---,0.00,VWS V14.01,2013-02-06 18:43:00,
2013-02-06 12:46:00,47.4,34.6,30.15,NE,49,0.0,9.0,61,0.00,,---,0.00,VWS V14.01,2013-02-06 18:46:00,
2013-02-06 12:47:00,47.4,34.6,30.15,NE,49,0.0,9.0,61,0.00,,---,0.00,VWS V14.01,2013-02-06 18:47:00,
2013-02-06 12:48:00,47.7,35.3,30.15,NE,35,2.0,9.0,62,0.00,,---,0.00,VWS V14.01,2013-02-06 18:48:00,
2013-02-06 12:52:00,48.2,35.8,30.15,NNE,31,2.0,9.0,62,0.00,,---,0.00,VWS V14.01,2013-02-06 18:52:00,
2013-02-06 12:53:00,48.4,36.8,30.15,ESE,104,3.0,9.0,64,0.00,,---,0.00,VWS V14.01,2013-02-06 18:53:00,
2013-02-06 12:57:00,48.5,35.7,30.15,East,87,1.0,9.0,61,0.00,,---,0.00,VWS V14.01,2013-02-06 18:57:00,
2013-02-06 12:58:00,48.3,35.9,30.15,ENE,71,3.0,9.0,62,0.00,,---,0.00,VWS V14.01,2013-02-06 18:58:00,
2013-02-06 12:59:00,48.5,36.9,30.15,ENE,77,3.0,9.0,64,0.00,,---,0.00,VWS V14.01,2013-02-06 18:59:00,
2013-02-06 13:00:00,48.3,35.9,30.15,ENE,71,3.0,9.0,62,0.00,,---,0.00,VWS V14.01,2013-02-06 19:00:00,
2013-02-06 13:02:00,49.0,37.0,30.14,NE,42,0.0,9.0,63,0.00,,---,0.00,VWS V14.01,2013-02-06 19:02:00,
2013-02-06 13:03:00,49.2,36.8,30.14,NE,54,6.0,9.0,62,0.00,,---,0.00,VWS V14.01,2013-02-06 19:03:00,
2013-02-06 13:04:00,49.1,36.7,30.14,East,80,2.0,9.0,62,0.00,,---,0.00,VWS V14.01,2013-02-06 19:04:00,
2013-02-06 13:07:00,49.2,36.8,30.14,NE,56,7.0,9.0,62,0.00,,---,0.00,VWS V14.01,2013-02-06 19:07:00,
2013-02-06 13:08:00,49.2,36.8,30.14,ENE,58,8.0,9.0,62,0.00,,---,0.00,VWS V14.01,2013-02-06 19:08:00,
2013-02-06 13:09:00,49.2,36.3,30.14,NE,42,4.0,9.0,61,0.00,,---,0.00,VWS V14.01,2013-02-06 19:09:00,
2013-02-06 13:12:00,48.9,36.1,30.14,NE,56,5.0,9.0,61,0.00,,---,0.00,VWS V14.01,2013-02-06 19:12:00,
2013-02-06 13:13:00,48.9,35.6,30.14,East,83,4.0,9.0,60,0.00,,---,0.00,VWS V14.01,2013-02-06 19:13:00,
2013-02-06 13:14:00,48.9,35.6,30.14,NNE,31,4.0,9.0,60,0.00,,---,0.00,VWS V14.01,2013-02-06 19:14:00,
2013-02-06 13:17:00,49.2,36.8,30.13,NE,49,3.0,9.0,62,0.00,,---,0.00,VWS V14.01,2013-02-06 19:17:00,
2013-02-06 13:18:00,49.2,35.5,30.13,ESE,108,1.0,9.0,59,0.00,,---,0.00,VWS V14.01,2013-02-06 19:18:00,
2013-02-06 13:19:00,49.2,35.5,30.13,ESE,108,0.0,9.0,59,0.00,,---,0.00,VWS V14.01,2013-02-06 19:19:00,
2013-02-06 13:22:00,49.2,35.5,30.13,East,95,2.0,9.0,59,0.00,,---,0.00,VWS V14.01,2013-02-06 19:22:00,
2013-02-06 13:23:00,49.2,36.3,30.13,ENE,75,4.0,9.0,61,0.00,,---,0.00,VWS V14.01,2013-02-06 19:23:00,
2013-02-06 13:24:00,49.3,36.4,30.13,ENE,74,2.0,9.0,61,0.00,,---,0.00,VWS V14.01,2013-02-06 19:24:00,
2013-02-06 13:27:00,49.7,36.4,30.12,East,92,7.0,9.0,60,0.00,,---,0.00,VWS V14.01,2013-02-06 19:27:00,
2013-02-06 13:29:00,49.7,36.0,30.13,East,81,7.0,9.0,59,0.00,,---,0.00,VWS V14.01,2013-02-06 19:29:00,
2013-02-06 13:30:00,49.7,36.4,30.12,East,89,4.0,9.0,60,0.00,,---,0.00,VWS V14.01,2013-02-06 19:30:00,
2013-02-06 13:33:00,49.6,35.9,30.12,ENE,75,3.0,9.0,59,0.00,,---,0.00,VWS V14.01,2013-02-06 19:33:00,
2013-02-06 13:34:00,49.7,36.0,30.12,East,99,4.0,9.0,59,0.00,,---,0.00,VWS V14.01,2013-02-06 19:34:00,
2013-02-06 13:38:00,50.2,36.0,30.12,NE,56,0.0,9.0,58,0.00,,---,0.00,VWS V14.01,2013-02-06 19:38:00,
2013-02-06 13:39:00,50.2,36.0,30.12,NE,56,1.0,9.0,58,0.00,,---,0.00,VWS V14.01,2013-02-06 19:39:00,
2013-02-06 13:43:00,50.1,35.5,30.13,East,87,1.0,9.0,57,0.00,,---,0.00,VWS V14.01,2013-02-06 19:43:00,
2013-02-06 13:44:00,50.0,34.9,30.13,East,87,0.0,9.0,56,0.00,,---,0.00,VWS V14.01,2013-02-06 19:44:00,
2013-02-06 13:45:00,50.0,35.4,30.12,East,87,1.0,9.0,57,0.00,,---,0.00,VWS V14.01,2013-02-06 19:45:00,
2013-02-06 13:48:00,50.5,35.4,30.13,East,97,5.0,9.0,56,0.00,,---,0.00,VWS V14.01,2013-02-06 19:48:00,
2013-02-06 13:49:00,50.3,34.8,30.13,East,86,2.0,9.0,55,0.00,,---,0.00,VWS V14.01,2013-02-06 19:49:00,
2013-02-06 13:50:00,50.3,35.2,30.13,East,98,6.0,9.0,56,0.00,,---,0.00,VWS V14.01,2013-02-06 19:50:00,
2013-02-06 13:53:00,50.1,35.0,30.13,ENE,65,3.0,9.0,56,0.00,,---,0.00,VWS V14.01,2013-02-06 19:53:00,
2013-02-06 13:54:00,50.1,35.5,30.13,East,95,4.0,9.0,57,0.00,,---,0.00,VWS V14.01,2013-02-06 19:54:00,
2013-02-06 13:55:00,50.1,35.5,30.13,ESE,110,6.0,9.0,57,0.00,,---,0.00,VWS V14.01,2013-02-06 19:55:00,
2013-02-06 13:59:00,49.9,34.4,30.12,East,85,4.0,5.0,55,0.00,,---,0.00,VWS V14.01,2013-02-06 19:59:00,
2013-02-06 14:00:00,49.8,34.3,30.13,East,87,2.0,5.0,55,0.00,,---,0.00,VWS V14.01,2013-02-06 20:00:00,
2013-02-06 14:04:00,49.9,35.3,30.13,East,87,5.0,9.0,57,0.00,,---,0.00,VWS V14.01,2013-02-06 20:04:00,
2013-02-06 14:05:00,49.9,34.8,30.13,ESE,106,3.0,9.0,56,0.00,,---,0.00,VWS V14.01,2013-02-06 20:05:00,
2013-02-06 14:09:00,50.7,35.6,30.13,ESE,106,7.0,9.0,56,0.00,,---,0.00,VWS V14.01,2013-02-06 20:09:00,
2013-02-06 14:10:00,50.6,35.5,30.13,East,101,9.0,9.0,56,0.00,,---,0.00,VWS V14.01,2013-02-06 20:10:00,
2013-02-06 14:11:00,50.6,35.5,30.12,ESE,123,6.0,9.0,56,0.00,,---,0.00,VWS V14.01,2013-02-06 20:11:00,
2013-02-06 14:14:00,50.5,35.4,30.12,SSE,162,3.0,9.0,56,0.00,,---,0.00,VWS V14.01,2013-02-06 20:14:00,
2013-02-06 14:15:00,50.8,35.7,30.12,SE,138,5.0,9.0,56,0.00,,---,0.00,VWS V14.01,2013-02-06 20:15:00,
2013-02-06 14:16:00,50.8,35.2,30.12,ESE,118,7.0,9.0,55,0.00,,---,0.00,VWS V14.01,2013-02-06 20:16:00,
2013-02-06 14:19:00,50.7,34.7,30.12,ENE,72,3.0,9.0,54,0.00,,---,0.00,VWS V14.01,2013-02-06 20:19:00,
2013-02-06 14:20:00,50.6,34.6,30.12,East,85,3.0,9.0,54,0.00,,---,0.00,VWS V14.01,2013-02-06 20:20:00,
2013-02-06 14:21:00,50.6,34.6,30.12,East,100,4.0,9.0,54,0.00,,---,0.00,VWS V14.01,2013-02-06 20:21:00,
2013-02-06 14:24:00,50.8,35.2,30.12,East,89,4.0,9.0,55,0.00,,---,0.00,VWS V14.01,2013-02-06 20:24:00,
2013-02-06 14:25:00,51.0,35.4,30.12,ESE,120,4.0,9.0,55,0.00,,---,0.00,VWS V14.01,2013-02-06 20:25:00,
2013-02-06 14:26:00,51.0,35.0,30.12,ESE,120,3.0,9.0,54,0.00,,---,0.00,VWS V14.01,2013-02-06 20:26:00,
2013-02-06 14:29:00,51.2,36.1,30.12,East,93,4.0,9.0,56,0.00,,---,0.00,VWS V14.01,2013-02-06 20:29:00,
2013-02-06 14:30:00,51.2,35.6,30.12,ENE,74,4.0,9.0,55,0.00,,---,0.00,VWS V14.01,2013-02-06 20:30:00,
2013-02-06 14:31:00,51.2,35.6,30.12,ENE,74,3.0,9.0,55,0.00,,---,0.00,VWS V14.01,2013-02-06 20:31:00,
2013-02-06 14:34:00,51.0,35.0,30.11,ENE,59,6.0,9.0,54,0.00,,---,0.00,VWS V14.01,2013-02-06 20:34:00,
2013-02-06 14:35:00,51.0,34.5,30.11,NE,50,8.0,9.0,53,0.00,,---,0.00,VWS V14.01,2013-02-06 20:35:00,
2013-02-06 14:36:00,51.0,34.5,30.11,NE,56,8.0,9.0,53,0.00,,---,0.00,VWS V14.01,2013-02-06 20:36:00,
2013-02-06 14:40:00,51.0,35.0,30.11,ESE,106,1.0,9.0,54,0.00,,---,0.00,VWS V14.01,2013-02-06 20:40:00,
2013-02-06 14:41:00,51.0,34.5,30.11,NE,51,6.0,9.0,53,0.00,,---,0.00,VWS V14.01,2013-02-06 20:41:00,
2013-02-06 14:45:00,51.0,35.0,30.11,NNE,31,7.0,9.0,54,0.00,,---,0.00,VWS V14.01,2013-02-06 20:45:00,
2013-02-06 14:46:00,51.0,35.0,30.11,NNE,31,7.0,9.0,54,0.00,,---,0.00,VWS V14.01,2013-02-06 20:46:00,
2013-02-06 14:47:00,51.0,35.0,30.11,NNE,31,7.0,9.0,54,0.00,,---,0.00,VWS V14.01,2013-02-06 20:47:00,
2013-02-06 14:50:00,51.0,35.0,30.11,NNE,31,7.0,9.0,54,0.00,,---,0.00,VWS V14.01,2013-02-06 20:50:00,
2013-02-06 14:51:00,51.9,35.8,30.11,NNE,26,5.0,9.0,54,0.00,,---,0.00,VWS V14.01,2013-02-06 20:51:00,
2013-02-06 14:52:00,51.9,36.3,30.11,NNE,29,3.0,9.0,55,0.00,,---,0.00,VWS V14.01,2013-02-06 20:52:00,
2013-02-06 14:55:00,52.3,36.2,30.11,ENE,58,6.0,10.0,54,0.00,,---,0.00,VWS V14.01,2013-02-06 20:55:00,
2013-02-06 14:56:00,52.1,35.0,30.11,ENE,58,3.0,10.0,52,0.00,,---,0.00,VWS V14.01,2013-02-06 20:56:00,
2013-02-06 14:57:00,51.9,35.8,30.11,NE,48,1.0,10.0,54,0.00,,---,0.00,VWS V14.01,2013-02-06 20:57:00,
2013-02-06 15:00:00,51.8,35.2,30.11,NE,44,2.0,6.0,53,0.00,,---,0.00,VWS V14.01,2013-02-06 21:00:00,
2013-02-06 15:01:00,51.7,35.1,30.11,NE,44,2.0,6.0,53,0.00,,---,0.00,VWS V14.01,2013-02-06 21:01:00,
2013-02-06 15:02:00,51.5,35.0,30.11,ENE,71,3.0,6.0,53,0.00,,---,0.00,VWS V14.01,2013-02-06 21:02:00,
2013-02-06 15:06:00,51.6,36.4,30.10,NE,49,3.0,7.0,56,0.00,,---,0.00,VWS V14.01,2013-02-06 21:06:00,
2013-02-06 15:08:00,51.5,35.9,30.10,NE,40,5.0,7.0,55,0.00,,---,0.00,VWS V14.01,2013-02-06 21:08:00,
2013-02-06 15:11:00,51.6,36.4,30.10,ESE,119,4.0,7.0,56,0.00,,---,0.00,VWS V14.01,2013-02-06 21:11:00,
2013-02-06 15:13:00,51.8,37.1,30.10,SE,127,4.0,7.0,57,0.00,,---,0.00,VWS V14.01,2013-02-06 21:13:00,
2013-02-06 15:16:00,52.2,36.5,30.10,East,94,4.0,7.0,55,0.00,,---,0.00,VWS V14.01,2013-02-06 21:16:00,
2013-02-06 15:17:00,52.2,36.5,30.10,ESE,123,5.0,7.0,55,0.00,,---,0.00,VWS V14.01,2013-02-06 21:17:00,
2013-02-06 15:18:00,52.3,37.1,30.10,SE,131,4.0,7.0,56,0.00,,---,0.00,VWS V14.01,2013-02-06 21:18:00,
2013-02-06 15:21:00,52.2,37.0,30.10,ESE,118,4.0,8.0,56,0.00,,---,0.00,VWS V14.01,2013-02-06 21:21:00,
2013-02-06 15:22:00,52.2,37.0,30.10,East,91,7.0,8.0,56,0.00,,---,0.00,VWS V14.01,2013-02-06 21:22:00,
2013-02-06 15:23:00,52.1,37.3,30.10,East,98,4.0,8.0,57,0.00,,---,0.00,VWS V14.01,2013-02-06 21:23:00,
2013-02-06 15:26:00,52.1,37.8,30.10,East,96,6.0,8.0,58,0.00,,---,0.00,VWS V14.01,2013-02-06 21:26:00,
2013-02-06 15:27:00,52.0,37.2,30.10,East,96,5.0,5.0,57,0.00,,---,0.00,VWS V14.01,2013-02-06 21:27:00,
2013-02-06 15:28:00,52.1,37.8,30.10,ESE,120,4.0,7.0,58,0.00,,---,0.00,VWS V14.01,2013-02-06 21:28:00,
2013-02-06 15:30:00,52.0,37.3,30.10,East,96,5.0,8.0,57,0.00,,---,0.00,VWS V14.01,2013-02-06 21:30:00,
2013-02-06 15:31:00,52.1,37.3,30.10,East,88,3.0,7.0,57,0.00,,---,0.00,VWS V14.01,2013-02-06 21:31:00,
2013-02-06 15:33:00,52.0,37.7,30.10,ESE,110,5.0,8.0,58,0.00,,---,0.00,VWS V14.01,2013-02-06 21:33:00,
2013-02-06 15:36:00,52.1,37.3,30.10,ESE,114,7.0,8.0,57,0.00,,---,0.00,VWS V14.01,2013-02-06 21:36:00,
2013-02-06 15:37:00,52.1,37.3,30.10,ESE,120,7.0,8.0,57,0.00,,---,0.00,VWS V14.01,2013-02-06 21:37:00,
2013-02-06 15:38:00,52.2,37.9,30.10,SE,125,4.0,8.0,58,0.00,,---,0.00,VWS V14.01,2013-02-06 21:38:00,
2013-02-06 15:39:00,52.3,38.0,30.10,SE,128,4.0,8.0,58,0.00,,---,0.00,VWS V14.01,2013-02-06 21:39:00,
2013-02-06 15:42:00,52.2,37.4,30.10,South,181,3.0,8.0,57,0.00,,---,0.00,VWS V14.01,2013-02-06 21:42:00,
2013-02-06 15:44:00,52.1,37.3,30.10,SE,143,9.0,10.0,57,0.00,,---,0.00,VWS V14.01,2013-02-06 21:44:00,
2013-02-06 15:47:00,51.7,37.4,30.10,SE,141,5.0,10.0,58,0.00,,---,0.00,VWS V14.01,2013-02-06 21:47:00,
2013-02-06 15:49:00,51.7,37.4,30.10,SE,146,9.0,10.0,58,0.00,,---,0.00,VWS V14.01,2013-02-06 21:49:00,
2013-02-06 15:52:00,51.5,37.7,30.10,ESE,123,7.0,10.0,59,0.00,,---,0.00,VWS V14.01,2013-02-06 21:52:00,
2013-02-06 15:54:00,51.5,37.7,30.11,ESE,102,9.0,10.0,59,0.00,,---,0.00,VWS V14.01,2013-02-06 21:54:00,
2013-02-06 15:55:00,51.5,37.2,30.11,SE,129,6.0,10.0,58,0.00,,---,0.00,VWS V14.01,2013-02-06 21:55:00,
2013-02-06 15:57:00,51.3,37.5,30.11,East,85,8.0,10.0,59,0.00,,---,0.00,VWS V14.01,2013-02-06 21:57:00,
2013-02-06 15:58:00,51.3,37.0,30.11,East,89,4.0,7.0,58,0.00,,---,0.00,VWS V14.01,2013-02-06 21:58:00,
2013-02-06 15:59:00,51.2,37.4,30.11,SSE,149,7.0,7.0,59,0.00,,---,0.00,VWS V14.01,2013-02-06 21:59:00,
2013-02-06 16:00:00,51.2,37.4,30.11,SE,139,6.0,7.0,59,0.00,,---,0.00,VWS V14.01,2013-02-06 22:00:00,
2013-02-06 16:02:00,51.2,37.4,30.11,SE,135,2.0,8.0,59,0.00,,---,0.00,VWS V14.01,2013-02-06 22:02:00,
2013-02-06 16:03:00,51.1,37.7,30.11,SE,125,6.0,8.0,60,0.00,,---,0.00,VWS V14.01,2013-02-06 22:03:00,
2013-02-06 16:04:00,51.1,37.7,30.11,East,98,7.0,8.0,60,0.00,,---,0.00,VWS V14.01,2013-02-06 22:04:00,
2013-02-06 16:05:00,51.1,37.3,30.11,SE,126,7.0,8.0,59,0.00,,---,0.00,VWS V14.01,2013-02-06 22:05:00,
2013-02-06 16:07:00,51.0,37.6,30.11,SSE,155,4.0,8.0,60,0.00,,---,0.00,VWS V14.01,2013-02-06 22:07:00,
2013-02-06 16:08:00,51.0,37.2,30.11,SSE,155,2.0,8.0,59,0.00,,---,0.00,VWS V14.01,2013-02-06 22:08:00,
2013-02-06 16:09:00,51.1,37.3,30.11,ESE,123,5.0,8.0,59,0.00,,---,0.00,VWS V14.01,2013-02-06 22:09:00,
2013-02-06 16:10:00,51.0,37.2,30.11,SSE,147,4.0,8.0,59,0.00,,---,0.00,VWS V14.01,2013-02-06 22:10:00,
2013-02-06 16:13:00,51.1,37.3,30.11,SE,128,4.0,8.0,59,0.00,,---,0.00,VWS V14.01,2013-02-06 22:13:00,
2013-02-06 16:15:00,51.1,37.3,30.11,SSE,154,6.0,8.0,59,0.00,,---,0.00,VWS V14.01,2013-02-06 22:15:00,
2013-02-06 16:18:00,51.1,36.8,30.11,SE,140,6.0,8.0,58,0.00,,---,0.00,VWS V14.01,2013-02-06 22:18:00,
2013-02-06 16:20:00,51.0,37.2,30.11,SSE,154,4.0,8.0,59,0.00,,---,0.00,VWS V14.01,2013-02-06 22:20:00,
2013-02-06 16:23:00,50.9,37.1,30.11,SE,141,3.0,8.0,59,0.00,,---,0.00,VWS V14.01,2013-02-06 22:23:00,
2013-02-06 16:25:00,50.8,36.6,30.11,SE,142,3.0,8.0,58,0.00,,---,0.00,VWS V14.01,2013-02-06 22:25:00,
2013-02-06 16:26:00,50.8,36.6,30.11,SE,135,4.0,8.0,58,0.00,,---,0.00,VWS V14.01,2013-02-06 22:26:00,
2013-02-06 16:28:00,50.7,36.5,30.11,ESE,120,3.0,6.0,58,0.00,,---,0.00,VWS V14.01,2013-02-06 22:28:00,
2013-02-06 16:29:00,50.7,36.5,30.11,ESE,120,4.0,6.0,58,0.00,,---,0.00,VWS V14.01,2013-02-06 22:29:00,
2013-02-06 16:30:00,50.8,36.6,30.11,ESE,120,3.0,6.0,58,0.00,,---,0.00,VWS V14.01,2013-02-06 22:30:00,
2013-02-06 16:31:00,50.7,36.5,30.11,SSE,151,3.0,6.0,58,0.00,,---,0.00,VWS V14.01,2013-02-06 22:31:00,
2013-02-06 16:33:00,50.7,36.5,30.11,ESE,118,5.0,6.0,58,0.00,,---,0.00,VWS V14.01,2013-02-06 22:33:00,
2013-02-06 16:34:00,50.7,36.5,30.11,SE,133,4.0,6.0,58,0.00,,---,0.00,VWS V14.01,2013-02-06 22:34:00,
2013-02-06 16:35:00,50.6,36.4,30.11,SE,133,5.0,6.0,58,0.00,,---,0.00,VWS V14.01,2013-02-06 22:35:00,
2013-02-06 16:36:00,50.6,35.9,30.11,ESE,116,6.0,6.0,57,0.00,,---,0.00,VWS V14.01,2013-02-06 22:36:00,
2013-02-06 16:39:00,50.6,36.4,30.11,ESE,116,5.0,7.0,58,0.00,,---,0.00,VWS V14.01,2013-02-06 22:39:00,
2013-02-06 16:41:00,50.5,35.8,30.11,SE,128,4.0,7.0,57,0.00,,---,0.00,VWS V14.01,2013-02-06 22:41:00,
2013-02-06 16:44:00,50.5,36.3,30.11,SSE,160,3.0,7.0,58,0.00,,---,0.00,VWS V14.01,2013-02-06 22:44:00,
2013-02-06 16:46:00,50.4,36.6,30.11,SSE,150,3.0,7.0,59,0.00,,---,0.00,VWS V14.01,2013-02-06 22:46:00,
2013-02-06 16:49:00,50.1,36.8,30.11,ESE,116,3.0,7.0,60,0.00,,---,0.00,VWS V14.01,2013-02-06 22:49:00,
2013-02-06 16:50:00,50.1,36.8,30.11,ESE,116,3.0,7.0,60,0.00,,---,0.00,VWS V14.01,2013-02-06 22:50:00,
2013-02-06 16:51:00,50.1,36.8,30.10,ESE,116,2.0,7.0,60,0.00,,---,0.00,VWS V14.01,2013-02-06 22:51:00,
2013-02-06 16:55:00,50.0,36.7,30.10,ESE,120,3.0,7.0,60,0.00,,---,0.00,VWS V14.01,2013-02-06 22:55:00,
2013-02-06 16:56:00,50.0,36.7,30.10,ESE,120,3.0,7.0,60,0.00,,---,0.00,VWS V14.01,2013-02-06 22:56:00,
2013-02-06 17:00:00,49.6,36.7,30.10,SE,136,4.0,6.0,61,0.00,,---,0.00,VWS V14.01,2013-02-06 23:00:00,
2013-02-06 17:01:00,49.6,36.7,30.10,ESE,117,4.0,6.0,61,0.00,,---,0.00,VWS V14.01,2013-02-06 23:01:00,
2013-02-06 17:05:00,49.6,36.7,30.10,ESE,116,6.0,6.0,61,0.00,,---,0.00,VWS V14.01,2013-02-06 23:05:00,
2013-02-06 17:06:00,49.5,36.6,30.10,ESE,123,3.0,6.0,61,0.00,,---,0.00,VWS V14.01,2013-02-06 23:06:00,
2013-02-06 17:10:00,49.2,36.8,30.10,ESE,123,2.0,6.0,62,0.00,,---,0.00,VWS V14.01,2013-02-06 23:10:00,
2013-02-06 17:11:00,49.2,36.3,30.10,ESE,123,2.0,6.0,61,0.00,,---,0.00,VWS V14.01,2013-02-06 23:11:00,
2013-02-06 17:12:00,49.2,36.8,30.10,ESE,123,2.0,6.0,62,0.00,,---,0.00,VWS V14.01,2013-02-06 23:12:00,
2013-02-06 17:15:00,49.1,36.7,30.10,ESE,102,3.0,6.0,62,0.00,,---,0.00,VWS V14.01,2013-02-06 23:15:00,
2013-02-06 17:16:00,49.1,36.2,30.10,ESE,102,2.0,6.0,61,0.00,,---,0.00,VWS V14.01,2013-02-06 23:16:00,
2013-02-06 17:17:00,49.1,36.7,30.10,ESE,102,4.0,6.0,62,0.00,,---,0.00,VWS V14.01,2013-02-06 23:17:00,
2013-02-06 17:21:00,48.9,36.5,30.10,East,93,4.0,6.0,62,0.00,,---,0.00,VWS V14.01,2013-02-06 23:21:00,
2013-02-06 17:22:00,48.9,36.5,30.10,East,93,3.0,6.0,62,0.00,,---,0.00,VWS V14.01,2013-02-06 23:22:00,
2013-02-06 17:26:00,48.7,36.7,30.10,East,93,3.0,6.0,63,0.00,,---,0.00,VWS V14.01,2013-02-06 23:26:00,
2013-02-06 17:27:00,48.6,36.6,30.10,East,93,4.0,6.0,63,0.00,,---,0.00,VWS V14.01,2013-02-06 23:27:00,
2013-02-06 17:28:00,48.6,36.6,30.10,East,87,3.0,4.0,63,0.00,,---,0.00,VWS V14.01,2013-02-06 23:28:00,
2013-02-06 17:30:00,48.6,36.6,30.10,East,87,4.0,6.0,63,0.00,,---,0.00,VWS V14.01,2013-02-06 23:30:00,
2013-02-06 17:32:00,48.5,36.5,30.10,East,95,4.0,4.0,63,0.00,,---,0.00,VWS V14.01,2013-02-06 23:32:00,
2013-02-06 17:33:00,48.4,36.4,30.10,East,95,3.0,4.0,63,0.00,,---,0.00,VWS V14.01,2013-02-06 23:33:00,
2013-02-06 17:37:00,48.2,36.2,30.09,East,86,2.0,5.0,63,0.00,,---,0.00,VWS V14.01,2013-02-06 23:37:00,
2013-02-06 17:38:00,48.1,36.5,30.09,East,86,2.0,5.0,64,0.00,,---,0.00,VWS V14.01,2013-02-06 23:38:00,
2013-02-06 17:42:00,47.9,36.3,30.09,East,86,2.0,5.0,64,0.00,,---,0.00,VWS V14.01,2013-02-06 23:42:00,
2013-02-06 17:43:00,47.8,36.2,30.09,ENE,77,2.0,5.0,64,0.00,,---,0.00,VWS V14.01,2013-02-06 23:43:00,
2013-02-06 17:47:00,47.9,36.3,30.09,ENE,72,2.0,5.0,64,0.00,,---,0.00,VWS V14.01,2013-02-06 23:47:00,
2013-02-06 17:48:00,47.9,36.3,30.09,ENE,72,1.0,5.0,64,0.00,,---,0.00,VWS V14.01,2013-02-06 23:48:00,
2013-02-06 17:52:00,47.6,36.4,30.09,ENE,72,1.0,5.0,65,0.00,,---,0.00,VWS V14.01,2013-02-06 23:52:00,
2013-02-06 17:53:00,47.6,36.4,30.09,ENE,72,1.0,5.0,65,0.00,,---,0.00,VWS V14.01,2013-02-06 23:53:00,
2013-02-06 17:54:00,47.5,36.3,30.09,ENE,72,1.0,5.0,65,0.00,,---,0.00,VWS V14.01,2013-02-06 23:54:00,
2013-02-06 17:57:00,47.4,36.2,30.09,ENE,72,2.0,5.0,65,0.00,,---,0.00,VWS V14.01,2013-02-06 23:57:00,
2013-02-06 17:58:00,47.4,36.2,30.09,ENE,72,1.0,1.0,65,0.00,,---,0.00,VWS V14.01,2013-02-06 23:58:00,
2013-02-06 17:59:00,47.3,36.5,30.09,ENE,72,0.0,2.0,66,0.00,,---,0.00,VWS V14.01,2013-02-06 23:59:00,
2013-02-06 18:00:00,47.4,36.2,30.09,ENE,72,1.0,5.0,65,0.00,,---,0.00,VWS V14.01,2013-02-07 00:00:00,
2013-02-06 18:02:00,46.7,36.0,30.09,ENE,72,0.0,2.0,66,0.00,,---,0.00,VWS V14.01,2013-02-07 00:02:00,
2013-02-06 18:03:00,46.7,36.0,30.09,ENE,72,0.0,2.0,66,0.00,,---,0.00,VWS V14.01,2013-02-07 00:03:00,
2013-02-06 18:04:00,46.7,36.0,30.09,ENE,72,0.0,2.0,66,0.00,,---,0.00,VWS V14.01,2013-02-07 00:04:00,
2013-02-06 18:07:00,46.9,35.8,30.09,ENE,72,2.0,2.0,65,0.00,,---,0.00,VWS V14.01,2013-02-07 00:07:00,
2013-02-06 18:08:00,46.9,35.8,30.09,ENE,72,1.0,2.0,65,0.00,,---,0.00,VWS V14.01,2013-02-07 00:08:00,
2013-02-06 18:09:00,47.0,35.9,30.09,ENE,72,1.0,2.0,65,0.00,,---,0.00,VWS V14.01,2013-02-07 00:09:00,
2013-02-06 18:13:00,46.7,36.0,30.09,ENE,72,2.0,2.0,66,0.00,,---,0.00,VWS V14.01,2013-02-07 00:13:00,
2013-02-06 18:14:00,46.8,35.7,30.09,ENE,72,0.0,2.0,65,0.00,,---,0.00,VWS V14.01,2013-02-07 00:14:00,
2013-02-06 18:18:00,46.7,36.0,30.09,ENE,72,1.0,2.0,66,0.00,,---,0.00,VWS V14.01,2013-02-07 00:18:00,
2013-02-06 18:20:00,46.4,36.0,30.09,ENE,72,0.0,2.0,67,0.00,,---,0.00,VWS V14.01,2013-02-07 00:20:00,
2013-02-06 18:23:00,46.2,35.5,30.09,East,79,0.0,2.0,66,0.00,,---,0.00,VWS V14.01,2013-02-07 00:23:00,
2013-02-06 18:24:00,46.3,35.6,30.09,East,79,0.0,2.0,66,0.00,,---,0.00,VWS V14.01,2013-02-07 00:24:00,
2013-02-06 18:25:00,46.3,35.6,30.09,East,79,0.0,2.0,66,0.00,,---,0.00,VWS V14.01,2013-02-07 00:25:00,
2013-02-06 18:28:00,46.3,35.6,30.09,East,79,0.0,0.0,66,0.00,,---,0.00,VWS V14.01,2013-02-07 00:28:00,
2013-02-06 18:29:00,46.3,35.6,30.09,East,79,0.0,1.0,66,0.00,,---,0.00,VWS V14.01,2013-02-07 00:29:00,
2013-02-06 18:30:00,46.3,35.6,30.09,East,79,1.0,1.0,66,0.00,,---,0.00,VWS V14.01,2013-02-07 00:30:00,
2013-02-06 18:33:00,46.3,35.2,30.08,East,79,0.0,2.0,65,0.00,,---,0.00,VWS V14.01,2013-02-07 00:33:00,
2013-02-06 18:34:00,46.2,35.1,30.09,East,79,0.0,2.0,65,0.00,,---,0.00,VWS V14.01,2013-02-07 00:34:00,
2013-02-06 18:35:00,46.0,35.7,30.09,East,79,0.0,2.0,67,0.00,,---,0.00,VWS V14.01,2013-02-07 00:35:00,
2013-02-06 18:38:00,45.8,35.5,30.09,East,79,0.0,2.0,67,0.00,,---,0.00,VWS V14.01,2013-02-07 00:38:00,
2013-02-06 18:39:00,45.8,35.5,30.09,East,79,0.0,2.0,67,0.00,,---,0.00,VWS V14.01,2013-02-07 00:39:00,
2013-02-06 18:41:00,45.8,35.5,30.08,East,79,0.0,2.0,67,0.00,,---,0.00,VWS V14.01,2013-02-07 00:41:00,
2013-02-06 18:43:00,45.8,35.5,30.08,East,79,0.0,2.0,67,0.00,,---,0.00,VWS V14.01,2013-02-07 00:43:00,
2013-02-06 18:44:00,45.8,35.5,30.08,East,79,0.0,2.0,67,0.00,,---,0.00,VWS V14.01,2013-02-07 00:44:00,
2013-02-06 18:45:00,45.7,35.8,30.08,East,79,0.0,2.0,68,0.00,,---,0.00,VWS V14.01,2013-02-07 00:45:00,
2013-02-06 18:46:00,45.7,35.8,30.08,East,79,0.0,2.0,68,0.00,,---,0.00,VWS V14.01,2013-02-07 00:46:00,
2013-02-06 18:48:00,45.5,35.6,30.08,East,79,0.0,2.0,68,0.00,,---,0.00,VWS V14.01,2013-02-07 00:48:00,
2013-02-06 18:50:00,45.4,35.5,30.08,East,79,0.0,2.0,68,0.00,,---,0.00,VWS V14.01,2013-02-07 00:50:00,
2013-02-06 18:51:00,45.4,35.5,30.08,East,79,1.0,2.0,68,0.00,,---,0.00,VWS V14.01,2013-02-07 00:51:00,
2013-02-06 18:53:00,45.4,35.5,30.08,East,79,1.0,2.0,68,0.00,,---,0.00,VWS V14.01,2013-02-07 00:53:00,
2013-02-06 18:55:00,45.5,35.6,30.08,East,79,1.0,2.0,68,0.00,,---,0.00,VWS V14.01,2013-02-07 00:55:00,
2013-02-06 18:57:00,45.4,35.8,30.08,East,79,0.0,2.0,69,0.00,,---,0.00,VWS V14.01,2013-02-07 00:57:00,
2013-02-06 18:58:00,45.3,35.7,30.08,East,79,0.0,0.0,69,0.00,,---,0.00,VWS V14.01,2013-02-07 00:58:00,
2013-02-06 19:00:00,45.2,35.7,30.08,East,79,0.0,0.0,69,0.00,,---,0.00,VWS V14.01,2013-02-07 01:00:00,
2013-02-06 19:02:00,45.2,35.7,30.08,East,79,1.0,2.0,69,0.00,,---,0.00,VWS V14.01,2013-02-07 01:02:00,
2013-02-06 19:04:00,45.2,35.7,30.09,East,79,1.0,2.0,69,0.00,,---,0.00,VWS V14.01,2013-02-07 01:04:00,
2013-02-06 19:05:00,45.1,35.5,30.09,East,79,2.0,2.0,69,0.00,,---,0.00,VWS V14.01,2013-02-07 01:05:00,
2013-02-06 19:07:00,45.2,35.3,30.09,SE,128,2.0,3.0,68,0.00,,---,0.00,VWS V14.01,2013-02-07 01:07:00,
2013-02-06 19:09:00,45.3,35.4,30.09,SE,128,3.0,3.0,68,0.00,,---,0.00,VWS V14.01,2013-02-07 01:09:00,
2013-02-06 19:10:00,45.4,35.5,30.09,SE,128,2.0,3.0,68,0.00,,---,0.00,VWS V14.01,2013-02-07 01:10:00,
2013-02-06 19:12:00,45.4,35.1,30.09,SE,125,1.0,3.0,67,0.00,,---,0.00,VWS V14.01,2013-02-07 01:12:00,
2013-02-06 19:14:00,45.5,35.2,30.09,SE,125,1.0,3.0,67,0.00,,---,0.00,VWS V14.01,2013-02-07 01:14:00,
2013-02-06 19:15:00,45.5,35.6,30.09,SE,125,1.0,3.0,68,0.00,,---,0.00,VWS V14.01,2013-02-07 01:15:00,
2013-02-06 19:17:00,45.5,35.2,30.09,SE,125,3.0,3.0,67,0.00,,---,0.00,VWS V14.01,2013-02-07 01:17:00,
2013-02-06 19:19:00,45.5,35.2,30.09,SE,125,1.0,3.0,67,0.00,,---,0.00,VWS V14.01,2013-02-07 01:19:00,
2013-02-06 19:20:00,45.6,35.3,30.09,SE,127,2.0,3.0,67,0.00,,---,0.00,VWS V14.01,2013-02-07 01:20:00,
2013-02-06 19:23:00,45.4,35.5,30.09,SE,127,1.0,3.0,68,0.00,,---,0.00,VWS V14.01,2013-02-07 01:23:00,
2013-02-06 19:24:00,45.2,35.3,30.10,SE,127,1.0,3.0,68,0.00,,---,0.00,VWS V14.01,2013-02-07 01:24:00,
2013-02-06 19:26:00,45.1,35.2,30.10,SE,127,1.0,3.0,68,0.00,,---,0.00,VWS V14.01,2013-02-07 01:26:00,
2013-02-06 19:29:00,45.2,35.3,30.10,SE,127,2.0,3.0,68,0.00,,---,0.00,VWS V14.01,2013-02-07 01:29:00,
2013-02-06 19:30:00,45.1,35.2,30.10,SE,127,2.0,4.0,68,0.00,,---,0.00,VWS V14.01,2013-02-07 01:30:00,
2013-02-06 19:31:00,45.3,35.4,30.10,SE,127,3.0,3.0,68,0.00,,---,0.00,VWS V14.01,2013-02-07 01:31:00,
2013-02-06 19:34:00,45.8,35.1,30.09,SE,127,2.0,4.0,66,0.00,,---,0.00,VWS V14.01,2013-02-07 01:34:00,
2013-02-06 19:36:00,46.0,35.3,30.09,SE,127,1.0,4.0,66,0.00,,---,0.00,VWS V14.01,2013-02-07 01:36:00,
2013-02-06 19:39:00,46.1,35.0,30.10,SE,127,0.0,4.0,65,0.00,,---,0.00,VWS V14.01,2013-02-07 01:39:00,
2013-02-06 19:41:00,46.2,35.1,30.10,SE,127,0.0,4.0,65,0.00,,---,0.00,VWS V14.01,2013-02-07 01:41:00,
2013-02-06 19:42:00,46.2,35.1,30.10,SE,127,0.0,4.0,65,0.00,,---,0.00,VWS V14.01,2013-02-07 01:42:00,
2013-02-06 19:44:00,46.2,35.1,30.10,SE,127,0.0,4.0,65,0.00,,---,0.00,VWS V14.01,2013-02-07 01:44:00,
2013-02-06 19:47:00,46.1,34.6,30.10,SE,127,0.0,4.0,64,0.00,,---,0.00,VWS V14.01,2013-02-07 01:47:00,
2013-02-06 19:51:00,46.0,34.9,30.10,SE,127,0.0,4.0,65,0.00,,---,0.00,VWS V14.01,2013-02-07 01:51:00,
2013-02-06 19:53:00,45.7,35.4,30.10,SE,127,0.0,4.0,67,0.00,,---,0.00,VWS V14.01,2013-02-07 01:53:00,
2013-02-06 20:00:00,44.5,35.3,30.10,SE,127,0.0,4.0,70,0.00,,---,0.00,VWS V14.01,2013-02-07 02:00:00,
2013-02-06 20:06:00,45.0,35.1,30.10,SE,127,0.0,0.0,68,0.00,,---,0.00,VWS V14.01,2013-02-07 02:06:00,
2013-02-06 20:08:00,45.2,34.9,30.10,SE,127,0.0,0.0,67,0.00,,---,0.00,VWS V14.01,2013-02-07 02:08:00,
2013-02-06 20:09:00,45.2,34.9,30.10,SE,127,0.0,0.0,67,0.00,,---,0.00,VWS V14.01,2013-02-07 02:09:00,
2013-02-06 20:11:00,45.4,35.1,30.10,SE,127,0.0,0.0,67,0.00,,---,0.00,VWS V14.01,2013-02-07 02:11:00,
2013-02-06 20:14:00,45.1,35.5,30.10,SE,127,3.0,3.0,69,0.00,,---,0.00,VWS V14.01,2013-02-07 02:14:00,
2013-02-06 20:16:00,44.3,35.5,30.10,SE,127,1.0,3.0,71,0.00,,---,0.00,VWS V14.01,2013-02-07 02:16:00,
2013-02-06 20:19:00,44.0,35.6,30.10,SE,127,2.0,3.0,72,0.00,,---,0.00,VWS V14.01,2013-02-07 02:19:00,
2013-02-06 20:21:00,43.9,35.5,30.10,SE,127,1.0,3.0,72,0.00,,---,0.00,VWS V14.01,2013-02-07 02:21:00,
2013-02-06 20:24:00,44.0,35.2,30.10,SE,127,0.0,3.0,71,0.00,,---,0.00,VWS V14.01,2013-02-07 02:24:00,
2013-02-06 20:26:00,44.6,35.1,30.10,SE,127,0.0,3.0,69,0.00,,---,0.00,VWS V14.01,2013-02-07 02:26:00,
2013-02-06 20:29:00,44.8,35.6,30.10,SE,127,0.0,0.0,70,0.00,,---,0.00,VWS V14.01,2013-02-07 02:29:00,
2013-02-06 20:30:00,44.8,34.9,30.10,SE,127,0.0,3.0,68,0.00,,---,0.00,VWS V14.01,2013-02-07 02:30:00,
2013-02-06 20:32:00,44.4,36.0,30.10,SE,127,0.0,0.0,72,0.00,,---,0.00,VWS V14.01,2013-02-07 02:32:00,
2013-02-06 20:34:00,44.5,35.0,30.10,SE,127,0.0,0.0,69,0.00,,---,0.00,VWS V14.01,2013-02-07 02:34:00,
2013-02-06 20:37:00,44.7,34.8,30.11,SE,127,1.0,1.0,68,0.00,,---,0.00,VWS V14.01,2013-02-07 02:37:00,
2013-02-06 20:39:00,44.7,34.8,30.11,SE,127,0.0,1.0,68,0.00,,---,0.00,VWS V14.01,2013-02-07 02:39:00,
2013-02-06 20:40:00,44.6,34.7,30.11,SE,127,0.0,1.0,68,0.00,,---,0.00,VWS V14.01,2013-02-07 02:40:00,
2013-02-06 20:42:00,44.5,35.0,30.11,SE,127,0.0,1.0,69,0.00,,---,0.00,VWS V14.01,2013-02-07 02:42:00,
2013-02-06 20:44:00,44.6,35.1,30.11,SE,127,0.0,1.0,69,0.00,,---,0.00,VWS V14.01,2013-02-07 02:44:00,
2013-02-06 20:45:00,44.6,34.7,30.10,SE,127,0.0,1.0,68,0.00,,---,0.00,VWS V14.01,2013-02-07 02:45:00,
2013-02-06 20:47:00,44.5,35.0,30.10,SE,127,0.0,1.0,69,0.00,,---,0.00,VWS V14.01,2013-02-07 02:47:00,
2013-02-06 20:49:00,44.2,35.4,30.10,SE,127,0.0,1.0,71,0.00,,---,0.00,VWS V14.01,2013-02-07 02:49:00,
2013-02-06 20:50:00,44.0,35.6,30.10,SE,127,0.0,1.0,72,0.00,,---,0.00,VWS V14.01,2013-02-07 02:50:00,
2013-02-06 20:52:00,43.8,35.7,30.10,SE,127,0.0,1.0,73,0.00,,---,0.00,VWS V14.01,2013-02-07 02:52:00,
2013-02-06 20:54:00,43.8,35.4,30.10,SE,127,0.0,1.0,72,0.00,,---,0.00,VWS V14.01,2013-02-07 02:54:00,
2013-02-06 20:55:00,43.9,35.5,30.10,SE,127,0.0,1.0,72,0.00,,---,0.00,VWS V14.01,2013-02-07 02:55:00,
2013-02-06 20:57:00,43.8,35.7,30.10,SE,127,0.0,1.0,73,0.00,,---,0.00,VWS V14.01,2013-02-07 02:57:00,
2013-02-06 21:00:00,43.6,35.5,30.10,SE,127,0.0,0.0,73,0.00,,---,0.00,VWS V14.01,2013-02-07 03:00:00,
2013-02-06 21:01:00,43.6,35.5,30.10,SE,127,0.0,0.0,73,0.00,,---,0.00,VWS V14.01,2013-02-07 03:01:00,
2013-02-06 21:02:00,43.7,35.3,30.09,SE,127,0.0,0.0,72,0.00,,---,0.00,VWS V14.01,2013-02-07 03:02:00,
2013-02-06 21:05:00,43.8,35.4,30.10,SE,127,0.0,0.0,72,0.00,,---,0.00,VWS V14.01,2013-02-07 03:05:00,
2013-02-06 21:06:00,43.9,35.1,30.10,SE,127,0.0,0.0,71,0.00,,---,0.00,VWS V14.01,2013-02-07 03:06:00,
2013-02-06 21:07:00,43.9,35.1,30.10,SE,127,0.0,0.0,71,0.00,,---,0.00,VWS V14.01,2013-02-07 03:07:00,
2013-02-06 21:10:00,43.9,35.1,30.10,SE,127,0.0,1.0,71,0.00,,---,0.00,VWS V14.01,2013-02-07 03:10:00,
2013-02-06 21:11:00,43.8,35.4,30.10,SE,127,0.0,1.0,72,0.00,,---,0.00,VWS V14.01,2013-02-07 03:11:00,
2013-02-06 21:12:00,43.6,35.2,30.10,SE,127,0.0,1.0,72,0.00,,---,0.00,VWS V14.01,2013-02-07 03:12:00,
2013-02-06 21:15:00,43.6,34.5,30.10,SE,127,0.0,1.0,70,0.00,,---,0.00,VWS V14.01,2013-02-07 03:15:00,
2013-02-06 21:16:00,43.8,34.7,30.10,SE,127,0.0,1.0,70,0.00,,---,0.00,VWS V14.01,2013-02-07 03:16:00,
2013-02-06 21:17:00,43.9,34.8,30.10,SE,127,0.0,1.0,70,0.00,,---,0.00,VWS V14.01,2013-02-07 03:17:00,
2013-02-06 21:20:00,43.8,35.0,30.09,SE,127,1.0,2.0,71,0.00,,---,0.00,VWS V14.01,2013-02-07 03:20:00,
2013-02-06 21:22:00,43.6,35.2,30.09,SE,127,0.0,2.0,72,0.00,,---,0.00,VWS V14.01,2013-02-07 03:22:00,
2013-02-06 21:23:00,43.5,35.1,30.09,SE,127,1.0,2.0,72,0.00,,---,0.00,VWS V14.01,2013-02-07 03:23:00,
2013-02-06 21:25:00,43.1,35.4,30.08,SE,127,2.0,2.0,74,0.00,,---,0.00,VWS V14.01,2013-02-07 03:25:00,
2013-02-06 21:26:00,43.0,35.6,30.08,SE,127,1.0,2.0,75,0.00,,---,0.00,VWS V14.01,2013-02-07 03:26:00,
2013-02-06 21:27:00,42.9,35.9,30.08,SE,127,1.0,2.0,76,0.00,,---,0.00,VWS V14.01,2013-02-07 03:27:00,
2013-02-06 21:28:00,42.8,35.8,30.08,SE,127,1.0,1.0,76,0.00,,---,0.00,VWS V14.01,2013-02-07 03:28:00,
2013-02-06 21:30:00,42.8,35.8,30.08,SE,127,0.0,2.0,76,0.00,,---,0.00,VWS V14.01,2013-02-07 03:30:00,
2013-02-06 21:31:00,42.7,35.7,30.08,SE,127,0.0,2.0,76,0.00,,---,0.00,VWS V14.01,2013-02-07 03:31:00,
2013-02-06 21:32:00,42.7,35.3,30.08,SE,127,0.0,2.0,75,0.00,,---,0.00,VWS V14.01,2013-02-07 03:32:00,
2013-02-06 21:33:00,42.9,35.2,30.08,SE,127,0.0,2.0,74,0.00,,---,0.00,VWS V14.01,2013-02-07 03:33:00,
2013-02-06 21:36:00,43.4,35.7,30.08,SE,127,0.0,2.0,74,0.00,,---,0.00,VWS V14.01,2013-02-07 03:36:00,
2013-02-06 21:37:00,43.4,35.0,30.08,SE,127,0.0,2.0,72,0.00,,---,0.00,VWS V14.01,2013-02-07 03:37:00,
2013-02-06 21:38:00,43.4,35.0,30.08,SE,127,0.0,2.0,72,0.00,,---,0.00,VWS V14.01,2013-02-07 03:38:00,
2013-02-06 21:41:00,43.4,35.3,30.08,SE,127,0.0,2.0,73,0.00,,---,0.00,VWS V14.01,2013-02-07 03:41:00,
2013-02-06 21:42:00,43.3,35.6,30.08,SE,127,0.0,2.0,74,0.00,,---,0.00,VWS V14.01,2013-02-07 03:42:00,
2013-02-06 21:43:00,43.2,35.1,30.08,SE,127,1.0,2.0,73,0.00,,---,0.00,VWS V14.01,2013-02-07 03:43:00,
2013-02-06 21:46:00,42.9,35.2,30.08,SE,127,0.0,2.0,74,0.00,,---,0.00,VWS V14.01,2013-02-07 03:46:00,
2013-02-06 21:47:00,42.8,35.1,30.08,SE,127,0.0,2.0,74,0.00,,---,0.00,VWS V14.01,2013-02-07 03:47:00,
2013-02-06 21:48:00,42.8,35.1,30.08,SE,127,0.0,2.0,74,0.00,,---,0.00,VWS V14.01,2013-02-07 03:48:00,
2013-02-06 21:51:00,43.0,34.6,30.08,SE,127,0.0,2.0,72,0.00,,---,0.00,VWS V14.01,2013-02-07 03:51:00,
2013-02-06 21:52:00,43.2,34.5,30.08,SE,127,0.0,2.0,71,0.00,,---,0.00,VWS V14.01,2013-02-07 03:52:00,
2013-02-06 21:53:00,43.4,34.3,30.08,SE,127,0.0,2.0,70,0.00,,---,0.00,VWS V14.01,2013-02-07 03:53:00,
2013-02-06 21:56:00,43.6,35.5,30.08,SE,127,0.0,2.0,73,0.00,,---,0.00,VWS V14.01,2013-02-07 03:56:00,
2013-02-06 21:57:00,43.4,35.3,30.08,SE,127,0.0,2.0,73,0.00,,---,0.00,VWS V14.01,2013-02-07 03:57:00,
2013-02-06 21:58:00,43.2,35.8,30.08,SE,127,0.0,1.0,75,0.00,,---,0.00,VWS V14.01,2013-02-07 03:58:00,
2013-02-06 22:00:00,43.3,35.6,30.08,SE,127,0.0,2.0,74,0.00,,---,0.00,VWS V14.01,2013-02-07 04:00:00,
2013-02-06 22:02:00,43.5,35.8,30.08,SE,127,1.0,2.0,74,0.00,,---,0.00,VWS V14.01,2013-02-07 04:02:00,
2013-02-06 22:03:00,43.4,36.0,30.08,SE,127,1.0,2.0,75,0.00,,---,0.00,VWS V14.01,2013-02-07 04:03:00,
2013-02-06 22:07:00,42.2,35.8,30.08,SE,127,1.0,2.0,78,0.00,,---,0.00,VWS V14.01,2013-02-07 04:07:00,
2013-02-06 22:08:00,42.1,35.8,30.08,SE,127,0.0,2.0,78,0.00,,---,0.00,VWS V14.01,2013-02-07 04:08:00,
2013-02-06 22:09:00,41.9,35.9,30.08,SE,127,0.0,2.0,79,0.00,,---,0.00,VWS V14.01,2013-02-07 04:09:00,
2013-02-06 22:12:00,41.9,35.2,30.08,SE,127,0.0,2.0,77,0.00,,---,0.00,VWS V14.01,2013-02-07 04:12:00,
2013-02-06 22:13:00,42.0,35.3,30.07,SE,127,0.0,2.0,77,0.00,,---,0.00,VWS V14.01,2013-02-07 04:13:00,
2013-02-06 22:14:00,42.3,35.0,30.07,SE,127,0.0,2.0,75,0.00,,---,0.00,VWS V14.01,2013-02-07 04:14:00,
2013-02-06 22:17:00,42.9,34.8,30.07,SE,127,0.0,2.0,73,0.00,,---,0.00,VWS V14.01,2013-02-07 04:17:00,
2013-02-06 22:18:00,43.0,34.6,30.07,SE,127,0.0,2.0,72,0.00,,---,0.00,VWS V14.01,2013-02-07 04:18:00,
2013-02-06 22:19:00,43.2,34.5,30.07,SE,127,0.0,2.0,71,0.00,,---,0.00,VWS V14.01,2013-02-07 04:19:00,
2013-02-06 22:22:00,43.4,34.6,30.07,SE,127,0.0,2.0,71,0.00,,---,0.00,VWS V14.01,2013-02-07 04:22:00,
2013-02-06 22:23:00,43.4,34.6,30.07,SE,127,0.0,2.0,71,0.00,,---,0.00,VWS V14.01,2013-02-07 04:23:00,
2013-02-06 22:24:00,43.4,34.6,30.07,SE,127,0.0,2.0,71,0.00,,---,0.00,VWS V14.01,2013-02-07 04:24:00,
2013-02-06 22:25:00,43.6,34.5,30.06,SE,127,0.0,2.0,70,0.00,,---,0.00,VWS V14.01,2013-02-07 04:25:00,
2013-02-06 22:27:00,43.4,34.6,30.06,SE,127,0.0,2.0,71,0.00,,---,0.00,VWS V14.01,2013-02-07 04:27:00,
2013-02-06 22:28:00,43.3,34.5,30.07,SE,127,1.0,1.0,71,0.00,,---,0.00,VWS V14.01,2013-02-07 04:28:00,
2013-02-06 22:29:00,43.3,34.9,30.07,SE,127,1.0,1.0,72,0.00,,---,0.00,VWS V14.01,2013-02-07 04:29:00,
2013-02-06 22:30:00,43.2,34.8,30.07,SE,127,1.0,1.0,72,0.00,,---,0.00,VWS V14.01,2013-02-07 04:30:00,
2013-02-06 22:32:00,43.0,34.6,30.07,SE,127,1.0,1.0,72,0.00,,---,0.00,VWS V14.01,2013-02-07 04:32:00,
2013-02-06 22:33:00,43.0,34.6,30.07,SE,127,1.0,2.0,72,0.00,,---,0.00,VWS V14.01,2013-02-07 04:33:00,
2013-02-06 22:34:00,43.0,34.6,30.07,SE,127,1.0,2.0,72,0.00,,---,0.00,VWS V14.01,2013-02-07 04:34:00,
2013-02-06 22:35:00,43.0,34.6,30.07,SE,127,0.0,2.0,72,0.00,,---,0.00,VWS V14.01,2013-02-07 04:35:00,
2013-02-06 22:37:00,43.2,34.5,30.07,SE,127,0.0,2.0,71,0.00,,---,0.00,VWS V14.01,2013-02-07 04:37:00,
2013-02-06 22:38:00,43.3,34.2,30.07,SE,127,0.0,2.0,70,0.00,,---,0.00,VWS V14.01,2013-02-07 04:38:00,
2013-02-06 22:39:00,43.4,34.3,30.07,SE,127,0.0,2.0,70,0.00,,---,0.00,VWS V14.01,2013-02-07 04:39:00,
2013-02-06 22:40:00,43.5,34.4,30.06,SE,127,0.0,2.0,70,0.00,,---,0.00,VWS V14.01,2013-02-07 04:40:00,
2013-02-06 22:42:00,43.7,34.2,30.07,SE,127,0.0,2.0,69,0.00,,---,0.00,VWS V14.01,2013-02-07 04:42:00,
2013-02-06 22:44:00,43.8,34.3,30.07,SE,127,0.0,2.0,69,0.00,,---,0.00,VWS V14.01,2013-02-07 04:44:00,
2013-02-06 22:45:00,43.8,34.3,30.07,SE,127,0.0,2.0,69,0.00,,---,0.00,VWS V14.01,2013-02-07 04:45:00,
2013-02-06 22:47:00,43.9,34.0,30.07,SE,127,0.0,2.0,68,0.00,,---,0.00,VWS V14.01,2013-02-07 04:47:00,
2013-02-06 22:49:00,44.0,34.1,30.07,SE,127,0.0,2.0,68,0.00,,---,0.00,VWS V14.01,2013-02-07 04:49:00,
2013-02-06 22:50:00,44.0,34.1,30.06,SE,127,0.0,2.0,68,0.00,,---,0.00,VWS V14.01,2013-02-07 04:50:00,
2013-02-06 22:53:00,43.9,34.0,30.06,SE,127,0.0,2.0,68,0.00,,---,0.00,VWS V14.01,2013-02-07 04:53:00,
2013-02-06 22:54:00,43.8,33.9,30.06,SE,127,0.0,2.0,68,0.00,,---,0.00,VWS V14.01,2013-02-07 04:54:00,
2013-02-06 22:55:00,43.9,33.7,30.06,SE,127,0.0,2.0,67,0.00,,---,0.00,VWS V14.01,2013-02-07 04:55:00,
2013-02-06 22:56:00,43.9,33.7,30.06,SE,127,0.0,2.0,67,0.00,,---,0.00,VWS V14.01,2013-02-07 04:56:00,
2013-02-06 22:58:00,44.1,33.9,30.06,SE,127,1.0,1.0,67,0.00,,---,0.00,VWS V14.01,2013-02-07 04:58:00,
2013-02-06 22:59:00,43.9,34.0,30.06,SE,127,0.0,1.0,68,0.00,,---,0.00,VWS V14.01,2013-02-07 04:59:00,
2013-02-06 23:00:00,43.8,33.9,30.06,SE,127,0.0,1.0,68,0.00,,---,0.00,VWS V14.01,2013-02-07 05:00:00,
2013-02-06 23:05:00,42.6,34.6,30.06,SE,127,2.0,2.0,73,0.00,,---,0.00,VWS V14.01,2013-02-07 05:05:00,
2013-02-06 23:10:00,41.7,34.0,30.06,SE,127,0.0,2.0,74,0.00,,---,0.00,VWS V14.01,2013-02-07 05:10:00,
2013-02-06 23:11:00,41.7,34.0,30.06,SE,127,0.0,2.0,74,0.00,,---,0.00,VWS V14.01,2013-02-07 05:11:00,
2013-02-06 23:15:00,41.9,34.2,30.06,SE,127,1.0,2.0,74,0.00,,---,0.00,VWS V14.01,2013-02-07 05:15:00,
2013-02-06 23:16:00,41.9,33.9,30.06,SE,127,0.0,2.0,73,0.00,,---,0.00,VWS V14.01,2013-02-07 05:16:00,
2013-02-06 23:20:00,42.0,33.6,30.06,SE,127,0.0,2.0,72,0.00,,---,0.00,VWS V14.01,2013-02-07 05:20:00,
2013-02-06 23:21:00,42.0,33.6,30.06,SE,127,0.0,2.0,72,0.00,,---,0.00,VWS V14.01,2013-02-07 05:21:00,
2013-02-06 23:25:00,42.4,33.7,30.06,SE,127,0.0,2.0,71,0.00,,---,0.00,VWS V14.01,2013-02-07 05:25:00,
2013-02-06 23:26:00,42.4,34.0,30.06,SE,127,0.0,2.0,72,0.00,,---,0.00,VWS V14.01,2013-02-07 05:26:00,
2013-02-06 23:30:00,42.4,34.0,30.06,SE,127,0.0,0.0,72,0.00,,---,0.00,VWS V14.01,2013-02-07 05:30:00,
2013-02-06 23:31:00,42.4,33.7,30.06,SE,127,0.0,0.0,71,0.00,,---,0.00,VWS V14.01,2013-02-07 05:31:00,
2013-02-06 23:36:00,42.6,33.9,30.06,SE,127,0.0,0.0,71,0.00,,---,0.00,VWS V14.01,2013-02-07 05:36:00,
2013-02-06 23:37:00,42.7,34.0,30.06,SE,127,0.0,0.0,71,0.00,,---,0.00,VWS V14.01,2013-02-07 05:37:00,
2013-02-06 23:41:00,43.4,33.9,30.06,SE,127,0.0,0.0,69,0.00,,---,0.00,VWS V14.01,2013-02-07 05:41:00,
2013-02-06 23:42:00,43.4,33.9,30.06,SE,127,0.0,0.0,69,0.00,,---,0.00,VWS V14.01,2013-02-07 05:42:00,
2013-02-06 23:46:00,43.2,33.7,30.06,SE,127,0.0,0.0,69,0.00,,---,0.00,VWS V14.01,2013-02-07 05:46:00,
2013-02-06 23:47:00,43.2,33.7,30.06,SE,127,0.0,0.0,69,0.00,,---,0.00,VWS V14.01,2013-02-07 05:47:00,
2013-02-06 23:51:00,42.7,33.6,30.05,SE,127,0.0,0.0,70,0.00,,---,0.00,VWS V14.01,2013-02-07 05:51:00,
2013-02-06 23:52:00,42.7,33.6,30.05,SE,127,0.0,0.0,70,0.00,,---,0.00,VWS V14.01,2013-02-07 05:52:00,
2013-02-06 23:56:00,43.0,33.5,30.05,SE,127,0.0,0.0,69,0.00,,---,0.00,VWS V14.01,2013-02-07 05:56:00,
2013-02-06 23:57:00,43.1,33.6,30.05,SE,127,0.0,0.0,69,0.00,,---,0.00,VWS V14.01,2013-02-07 05:57:00,